Observation data for Mertzon on 01/18/2019      Previous  Date  Next       Current Mesonet Observations  Soil Data  Daily Summary Page  Observations in Plain Language
KME1 180600Z 19003KT 08/04 A3008 RMK A01 T00810036  RH  073%=      5-min Rain = 0
KME1 180601Z 19003KT 08/04 A3008 RMK A01 T00810036  RH  073%=      5-min Rain = 0
KME1 180602Z 19003KT 08/04 A3008 RMK A01 T00810036  RH  073%=      5-min Rain = 0
KME1 180603Z 19004KT 08/04 A3008 RMK A01 T00810036  RH  073%=      5-min Rain = 0
KME1 180604Z 19004KT 08/04 A3008 RMK A01 T00800036  RH  074%=      5-min Rain = 0
KME1 180605Z 18005KT 08/04 A3008 RMK A01 T00800036  RH  074%=      5-min Rain = 0
KME1 180606Z 19006KT 08/04 A3008 RMK A01 T00800037  RH  074%=      5-min Rain = 0
KME1 180607Z 19006KT 08/04 A3008 RMK A01 T00800038  RH  075%=      5-min Rain = 0
KME1 180608Z 19006KT 08/04 A3008 RMK A01 T00810038  RH  075%=      5-min Rain = 0
KME1 180609Z 19005KT 08/04 A3008 RMK A01 T00810038  RH  074%=      5-min Rain = 0
KME1 180610Z 19006KT 08/04 A3008 RMK A01 T00820039  RH  074%=      5-min Rain = 0
KME1 180611Z 19007KT 08/04 A3008 RMK A01 T00820039  RH  074%=      5-min Rain = 0
KME1 180612Z 19006KT 08/04 A3008 RMK A01 T00830039  RH  074%=      5-min Rain = 0
KME1 180613Z 20006KT 08/04 A3008 RMK A01 T00830039  RH  074%=      5-min Rain = 0
KME1 180614Z 19007KT 09/04 A3008 RMK A01 T00850039  RH  073%=      5-min Rain = 0
KME1 180615Z 19007KT 09/04 A3008 RMK A01 T00860039  RH  073%=      5-min Rain = 0
KME1 180616Z 19007KT 09/04 A3008 RMK A01 T00870040  RH  072%=      5-min Rain = 0
KME1 180617Z 19008KT 09/04 A3008 RMK A01 T00880040  RH  072%=      5-min Rain = 0
KME1 180618Z 19008KT 09/04 A3008 RMK A01 T00890040  RH  071%=      5-min Rain = 0
KME1 180619Z 19008KT 09/04 A3008 RMK A01 T00900040  RH  071%=      5-min Rain = 0
KME1 180620Z 19009KT 09/04 A3007 RMK A01 T00920040  RH  070%=      5-min Rain = 0
KME1 180621Z 19009KT 09/04 A3007 RMK A01 T00940040  RH  069%=      5-min Rain = 0
KME1 180622Z 19010KT 10/04 A3007 RMK A01 T00950040  RH  068%=      5-min Rain = 0
KME1 180623Z 19009KT 10/04 A3007 RMK A01 T00960040  RH  068%=      5-min Rain = 0
KME1 180624Z 20009KT 10/04 A3007 RMK A01 T00970040  RH  067%=      5-min Rain = 0
KME1 180625Z 19009KT 10/04 A3007 RMK A01 T00980040  RH  067%=      5-min Rain = 0
KME1 180626Z 19008KT 10/04 A3007 RMK A01 T00970040  RH  068%=      5-min Rain = 0
KME1 180627Z 19009KT 10/04 A3007 RMK A01 T00970040  RH  068%=      5-min Rain = 0
KME1 180628Z 19008KT 10/04 A3007 RMK A01 T00970041  RH  068%=      5-min Rain = 0
KME1 180629Z 19008KT 10/04 A3007 RMK A01 T00960040  RH  068%=      5-min Rain = 0
KME1 180630Z 19009KT 10/04 A3007 RMK A01 T00960041  RH  068%=      5-min Rain = 0
KME1 180631Z 19008KT 10/04 A3007 RMK A01 T00960040  RH  068%=      5-min Rain = 0
KME1 180632Z 19008KT 10/04 A3007 RMK A01 T00960041  RH  068%=      5-min Rain = 0
KME1 180633Z 20008KT 10/04 A3007 RMK A01 T00960041  RH  069%=      5-min Rain = 0
KME1 180634Z 20009KT 10/04 A3007 RMK A01 T00960040  RH  068%=      5-min Rain = 0
KME1 180635Z 19010KT 10/04 A3007 RMK A01 T00960040  RH  068%=      5-min Rain = 0
KME1 180636Z 20010KT 10/04 A3006 RMK A01 T00970040  RH  068%=      5-min Rain = 0
KME1 180637Z 20009KT 10/04 A3006 RMK A01 T00970040  RH  068%=      5-min Rain = 0
KME1 180638Z 20009KT 10/04 A3006 RMK A01 T00970040  RH  068%=      5-min Rain = 0
KME1 180639Z 20009KT 10/04 A3006 RMK A01 T00970040  RH  068%=      5-min Rain = 0
KME1 180640Z 19009KT 10/04 A3006 RMK A01 T00970041  RH  068%=      5-min Rain = 0
KME1 180641Z 20009KT 10/04 A3006 RMK A01 T00970041  RH  068%=      5-min Rain = 0
KME1 180642Z 20008KT 10/04 A3006 RMK A01 T00960041  RH  068%=      5-min Rain = 0
KME1 180643Z 20009KT 10/04 A3006 RMK A01 T00960041  RH  069%=      5-min Rain = 0
KME1 180644Z 20009KT 10/04 A3006 RMK A01 T00950041  RH  069%=      5-min Rain = 0
KME1 180645Z 20009KT 10/04 A3006 RMK A01 T00950040  RH  069%=      5-min Rain = 0
KME1 180646Z 20009KT 10/04 A3006 RMK A01 T00960040  RH  068%=      5-min Rain = 0
KME1 180647Z 20009KT 10/04 A3006 RMK A01 T00960041  RH  068%=      5-min Rain = 0
KME1 180648Z 20009KT 10/04 A3006 RMK A01 T00960041  RH  068%=      5-min Rain = 0
KME1 180649Z 20010KT 10/04 A3006 RMK A01 T00960041  RH  068%=      5-min Rain = 0
KME1 180650Z 20010KT 10/04 A3006 RMK A01 T00970041  RH  068%=      5-min Rain = 0
KME1 180651Z 20009KT 10/04 A3006 RMK A01 T00970042  RH  068%=      5-min Rain = 0
KME1 180652Z 20010KT 10/04 A3006 RMK A01 T00980041  RH  068%=      5-min Rain = 0
KME1 180653Z 20010KT 10/04 A3006 RMK A01 T00990041  RH  067%=      5-min Rain = 0
KME1 180654Z 20011KT 10/04 A3006 RMK A01 T01000042  RH  067%=      5-min Rain = 0
KME1 180655Z 20009KT 10/04 A3006 RMK A01 T01010042  RH  067%=      5-min Rain = 0
KME1 180656Z 20010KT 10/04 A3006 RMK A01 T01010043  RH  067%=      5-min Rain = 0
KME1 180657Z 20010KT 10/04 A3006 RMK A01 T01020043  RH  067%=      5-min Rain = 0
KME1 180658Z 20009KT 10/04 A3006 RMK A01 T01030043  RH  066%=      5-min Rain = 0
KME1 180659Z 19009KT 10/04 A3006 RMK A01 T01030043  RH  066%=      5-min Rain = 0
KME1 180700Z 19009KT 10/04 A3006 RMK A01 T01030043  RH  066%=      5-min Rain = 0
KME1 180701Z 19008KT 10/04 A3006 RMK A01 T01030043  RH  066%=      5-min Rain = 0
KME1 180702Z 19010KT 10/04 A3006 RMK A01 T01030044  RH  067%=      5-min Rain = 0
KME1 180703Z 19008KT 10/04 A3006 RMK A01 T01030043  RH  066%=      5-min Rain = 0
KME1 180704Z 19007KT 10/04 A3006 RMK A01 T01030043  RH  066%=      5-min Rain = 0
KME1 180705Z 18008KT 10/04 A3006 RMK A01 T01040044  RH  066%=      5-min Rain = 0
KME1 180706Z 19009KT 10/05 A3006 RMK A01 T01040045  RH  067%=      5-min Rain = 0
KME1 180707Z 18008KT 11/04 A3006 RMK A01 T01050044  RH  066%=      5-min Rain = 0
KME1 180708Z 19008KT 11/05 A3006 RMK A01 T01060045  RH  066%=      5-min Rain = 0
KME1 180709Z 19008KT 11/05 A3006 RMK A01 T01060045  RH  066%=      5-min Rain = 0
KME1 180710Z 19008KT 11/05 A3006 RMK A01 T01060045  RH  066%=      5-min Rain = 0
KME1 180711Z 19009KT 11/05 A3006 RMK A01 T01070045  RH  066%=      5-min Rain = 0
KME1 180712Z 19008KT 11/05 A3006 RMK A01 T01080046  RH  065%=      5-min Rain = 0
KME1 180713Z 19009KT 11/05 A3006 RMK A01 T01100046  RH  065%=      5-min Rain = 0
KME1 180714Z 19008KT 11/05 A3006 RMK A01 T01100046  RH  065%=      5-min Rain = 0
KME1 180715Z 19009KT 11/05 A3006 RMK A01 T01110046  RH  064%=      5-min Rain = 0
KME1 180716Z 19008KT 11/05 A3006 RMK A01 T01110046  RH  064%=      5-min Rain = 0
KME1 180717Z 19009KT 11/05 A3006 RMK A01 T01110046  RH  064%=      5-min Rain = 0
KME1 180718Z 19008KT 11/05 A3006 RMK A01 T01110046  RH  064%=      5-min Rain = 0
KME1 180719Z 19010KT 11/05 A3006 RMK A01 T01110046  RH  064%=      5-min Rain = 0
KME1 180720Z 19009KT 11/05 A3006 RMK A01 T01110045  RH  064%=      5-min Rain = 0
KME1 180721Z 19009KT 11/05 A3006 RMK A01 T01120046  RH  064%=      5-min Rain = 0
KME1 180722Z 19009KT 11/05 A3006 RMK A01 T01120045  RH  064%=      5-min Rain = 0
KME1 180723Z 19009KT 11/05 A3006 RMK A01 T01130045  RH  063%=      5-min Rain = 0
KME1 180724Z 20008KT 11/05 A3006 RMK A01 T01130045  RH  063%=      5-min Rain = 0
KME1 180725Z 20009KT 11/05 A3006 RMK A01 T01140045  RH  063%=      5-min Rain = 0
KME1 180726Z 19010KT 12/04 A3006 RMK A01 T01150044  RH  062%=      5-min Rain = 0
KME1 180727Z 19009KT 12/04 A3006 RMK A01 T01170044  RH  061%=      5-min Rain = 0
KME1 180728Z 19009KT 12/04 A3006 RMK A01 T01180044  RH  060%=      5-min Rain = 0
KME1 180729Z 20009KT 12/04 A3006 RMK A01 T01180043  RH  060%=      5-min Rain = 0
KME1 180730Z 20008KT 12/04 A3006 RMK A01 T01190042  RH  059%=      5-min Rain = 0
KME1 180731Z 19010KT 12/04 A3006 RMK A01 T01190042  RH  059%=      5-min Rain = 0
KME1 180732Z 19009KT 12/04 A3006 RMK A01 T01200042  RH  059%=      5-min Rain = 0
KME1 180733Z 19008KT 12/04 A3006 RMK A01 T01200042  RH  059%=      5-min Rain = 0
KME1 180734Z 19008KT 12/04 A3006 RMK A01 T01190043  RH  059%=      5-min Rain = 0
KME1 180735Z 19008KT 12/04 A3006 RMK A01 T01190042  RH  059%=      5-min Rain = 0
KME1 180736Z 19009KT 12/04 A3006 RMK A01 T01180042  RH  059%=      5-min Rain = 0
KME1 180737Z 19008KT 12/04 A3006 RMK A01 T01190042  RH  059%=      5-min Rain = 0
KME1 180738Z 19008KT 12/04 A3006 RMK A01 T01190041  RH  059%=      5-min Rain = 0
KME1 180739Z 19007KT 12/04 A3006 RMK A01 T01190042  RH  059%=      5-min Rain = 0
KME1 180740Z 19007KT 12/04 A3006 RMK A01 T01190041  RH  059%=      5-min Rain = 0
KME1 180741Z 19008KT 12/04 A3006 RMK A01 T01190041  RH  059%=      5-min Rain = 0
KME1 180742Z 20007KT 12/04 A3006 RMK A01 T01190041  RH  059%=      5-min Rain = 0
KME1 180743Z 20008KT 12/04 A3006 RMK A01 T01190040  RH  058%=      5-min Rain = 0
KME1 180744Z 20008KT 12/04 A3006 RMK A01 T01200040  RH  058%=      5-min Rain = 0
KME1 180745Z 19008KT 12/04 A3006 RMK A01 T01210040  RH  058%=      5-min Rain = 0
KME1 180746Z 19007KT 12/04 A3005 RMK A01 T01210041  RH  058%=      5-min Rain = 0
KME1 180747Z 20007KT 12/04 A3005 RMK A01 T01210041  RH  058%=      5-min Rain = 0
KME1 180748Z 19008KT 12/04 A3005 RMK A01 T01210041  RH  058%=      5-min Rain = 0
KME1 180749Z 19009KT 12/04 A3005 RMK A01 T01210041  RH  058%=      5-min Rain = 0
KME1 180750Z 20007KT 12/04 A3005 RMK A01 T01210041  RH  058%=      5-min Rain = 0
KME1 180751Z 20008KT 12/04 A3005 RMK A01 T01220041  RH  058%=      5-min Rain = 0
KME1 180752Z 20010KT 12/04 A3005 RMK A01 T01220041  RH  058%=      5-min Rain = 0
KME1 180753Z 20008KT 12/04 A3005 RMK A01 T01220042  RH  058%=      5-min Rain = 0
KME1 180754Z 20008KT 12/04 A3005 RMK A01 T01210042  RH  058%=      5-min Rain = 0
KME1 180755Z 19008KT 12/04 A3005 RMK A01 T01210042  RH  058%=      5-min Rain = 0
KME1 180756Z 20009KT 12/04 A3005 RMK A01 T01210043  RH  059%=      5-min Rain = 0
KME1 180757Z 20010KT 12/04 A3005 RMK A01 T01200043  RH  059%=      5-min Rain = 0
KME1 180758Z 20008KT 12/04 A3005 RMK A01 T01200043  RH  059%=      5-min Rain = 0
KME1 180759Z 20008KT 12/04 A3005 RMK A01 T01200043  RH  059%=      5-min Rain = 0
KME1 180800Z 19010KT 12/04 A3005 RMK A01 T01200043  RH  060%=      5-min Rain = 0
KME1 180801Z 20008KT 12/04 A3005 RMK A01 T01190043  RH  060%=      5-min Rain = 0
KME1 180802Z 19009KT 12/04 A3005 RMK A01 T01190044  RH  060%=      5-min Rain = 0
KME1 180803Z 20009KT 12/04 A3004 RMK A01 T01180044  RH  060%=      5-min Rain = 0
KME1 180804Z 20009KT 12/04 A3004 RMK A01 T01180044  RH  060%=      5-min Rain = 0
KME1 180805Z 19008KT 12/04 A3004 RMK A01 T01180044  RH  060%=      5-min Rain = 0
KME1 180806Z 19009KT 12/04 A3004 RMK A01 T01180044  RH  061%=      5-min Rain = 0
KME1 180807Z 19010KT 12/04 A3004 RMK A01 T01170044  RH  061%=      5-min Rain = 0
KME1 180808Z 20010KT 12/04 A3004 RMK A01 T01170044  RH  061%=      5-min Rain = 0
KME1 180809Z 19010KT 12/04 A3004 RMK A01 T01170044  RH  061%=      5-min Rain = 0
KME1 180810Z 19008KT 12/04 A3004 RMK A01 T01180044  RH  061%=      5-min Rain = 0
KME1 180811Z 19009KT 12/04 A3004 RMK A01 T01170044  RH  061%=      5-min Rain = 0
KME1 180812Z 20008KT 12/04 A3004 RMK A01 T01160044  RH  061%=      5-min Rain = 0
KME1 180813Z 20008KT 12/04 A3004 RMK A01 T01160044  RH  061%=      5-min Rain = 0
KME1 180814Z 20008KT 12/04 A3004 RMK A01 T01160044  RH  062%=      5-min Rain = 0
KME1 180815Z 19008KT 12/05 A3004 RMK A01 T01160045  RH  062%=      5-min Rain = 0
KME1 180816Z 20009KT 12/04 A3004 RMK A01 T01150044  RH  062%=      5-min Rain = 0
KME1 180817Z 19007KT 12/04 A3004 RMK A01 T01150044  RH  062%=      5-min Rain = 0
KME1 180818Z 20009KT 12/05 A3004 RMK A01 T01150045  RH  062%=      5-min Rain = 0
KME1 180819Z 20009KT 12/04 A3003 RMK A01 T01150044  RH  062%=      5-min Rain = 0
KME1 180820Z 20009KT 12/05 A3003 RMK A01 T01150045  RH  062%=      5-min Rain = 0
KME1 180821Z 19008KT 12/05 A3003 RMK A01 T01150045  RH  062%=      5-min Rain = 0
KME1 180822Z 20009KT 12/05 A3003 RMK A01 T01150045  RH  062%=      5-min Rain = 0
KME1 180823Z 20008KT 12/05 A3003 RMK A01 T01150046  RH  063%=      5-min Rain = 0
KME1 180824Z 20008KT 11/05 A3003 RMK A01 T01140046  RH  063%=      5-min Rain = 0
KME1 180825Z 21008KT 11/05 A3003 RMK A01 T01140046  RH  063%=      5-min Rain = 0
KME1 180826Z 20008KT 11/05 A3003 RMK A01 T01130046  RH  063%=      5-min Rain = 0
KME1 180827Z 20008KT 11/05 A3003 RMK A01 T01130046  RH  063%=      5-min Rain = 0
KME1 180828Z 20007KT 11/05 A3003 RMK A01 T01140046  RH  063%=      5-min Rain = 0
KME1 180829Z 20008KT 11/05 A3003 RMK A01 T01140047  RH  063%=      5-min Rain = 0
KME1 180830Z 20007KT 11/05 A3003 RMK A01 T01140047  RH  063%=      5-min Rain = 0
KME1 180831Z 20008KT 11/05 A3003 RMK A01 T01140046  RH  063%=      5-min Rain = 0
KME1 180832Z 21008KT 11/05 A3003 RMK A01 T01140046  RH  063%=      5-min Rain = 0
KME1 180833Z 20008KT 11/05 A3003 RMK A01 T01140047  RH  063%=      5-min Rain = 0
KME1 180834Z 20009KT 11/05 A3003 RMK A01 T01140047  RH  063%=      5-min Rain = 0
KME1 180835Z 20007KT 12/05 A3003 RMK A01 T01150047  RH  063%=      5-min Rain = 0
KME1 180836Z 20008KT 11/05 A3003 RMK A01 T01140047  RH  063%=      5-min Rain = 0
KME1 180837Z 20009KT 11/05 A3003 RMK A01 T01140047  RH  063%=      5-min Rain = 0
KME1 180838Z 20009KT 11/05 A3003 RMK A01 T01140047  RH  063%=      5-min Rain = 0
KME1 180839Z 20009KT 12/05 A3003 RMK A01 T01150047  RH  063%=      5-min Rain = 0
KME1 180840Z 20009KT 12/05 A3003 RMK A01 T01150047  RH  063%=      5-min Rain = 0
KME1 180841Z 19009KT 12/05 A3003 RMK A01 T01150048  RH  063%=      5-min Rain = 0
KME1 180842Z 20009KT 12/05 A3003 RMK A01 T01150048  RH  063%=      5-min Rain = 0
KME1 180843Z 19010KT 12/05 A3003 RMK A01 T01150048  RH  064%=      5-min Rain = 0
KME1 180844Z 20010KT 12/05 A3003 RMK A01 T01150048  RH  064%=      5-min Rain = 0
KME1 180845Z 20009KT 12/05 A3003 RMK A01 T01150048  RH  064%=      5-min Rain = 0
KME1 180846Z 19009KT 12/05 A3003 RMK A01 T01150049  RH  064%=      5-min Rain = 0
KME1 180847Z 19012G17KT 12/05 A3003 RMK A01 T01150049  RH  064%=      5-min Rain = 0
KME1 180848Z 19011KT 12/05 A3003 RMK A01 T01160049  RH  063%=      5-min Rain = 0
KME1 180849Z 19008KT 12/05 A3003 RMK A01 T01160049  RH  063%=      5-min Rain = 0
KME1 180850Z 19009KT 12/05 A3003 RMK A01 T01160049  RH  064%=      5-min Rain = 0
KME1 180851Z 19009KT 12/05 A3003 RMK A01 T01150049  RH  064%=      5-min Rain = 0
KME1 180852Z 19010KT 12/05 A3003 RMK A01 T01150049  RH  064%=      5-min Rain = 0
KME1 180853Z 19009KT 12/05 A3003 RMK A01 T01150050  RH  064%=      5-min Rain = 0
KME1 180854Z 19009KT 11/05 A3003 RMK A01 T01140049  RH  064%=      5-min Rain = 0
KME1 180855Z 19008KT 11/05 A3003 RMK A01 T01140050  RH  065%=      5-min Rain = 0
KME1 180856Z 19009KT 11/05 A3003 RMK A01 T01140050  RH  065%=      5-min Rain = 0
KME1 180857Z 20011KT 11/05 A3002 RMK A01 T01140050  RH  065%=      5-min Rain = 0
KME1 180858Z 20009KT 11/05 A3002 RMK A01 T01140050  RH  065%=      5-min Rain = 0
KME1 180859Z 19009KT 11/05 A3002 RMK A01 T01140051  RH  065%=      5-min Rain = 0
KME1 180900Z 20009KT 11/05 A3002 RMK A01 T01140051  RH  065%=      5-min Rain = 0
KME1 180901Z 20007KT 11/05 A3002 RMK A01 T01140051  RH  065%=      5-min Rain = 0
KME1 180902Z 19009KT 11/05 A3002 RMK A01 T01140051  RH  065%=      5-min Rain = 0
KME1 180903Z 20010KT 11/05 A3002 RMK A01 T01140051  RH  065%=      5-min Rain = 0
KME1 180904Z 19009KT 11/05 A3002 RMK A01 T01140052  RH  065%=      5-min Rain = 0
KME1 180905Z 19009KT 11/05 A3002 RMK A01 T01140052  RH  065%=      5-min Rain = 0
KME1 180906Z 20010KT 12/05 A3002 RMK A01 T01150052  RH  065%=      5-min Rain = 0
KME1 180907Z 20010KT 12/05 A3002 RMK A01 T01150052  RH  065%=      5-min Rain = 0
KME1 180908Z 20009KT 12/05 A3002 RMK A01 T01150053  RH  065%=      5-min Rain = 0
KME1 180909Z 19010KT 12/05 A3002 RMK A01 T01150053  RH  066%=      5-min Rain = 0
KME1 180910Z 20009KT 12/05 A3002 RMK A01 T01150053  RH  066%=      5-min Rain = 0
KME1 180911Z 20009KT 12/05 A3002 RMK A01 T01150053  RH  066%=      5-min Rain = 0
KME1 180912Z 20010KT 12/05 A3002 RMK A01 T01150053  RH  066%=      5-min Rain = 0
KME1 180913Z 19008KT 12/05 A3002 RMK A01 T01150054  RH  066%=      5-min Rain = 0
KME1 180914Z 19008KT 11/05 A3002 RMK A01 T01140054  RH  066%=      5-min Rain = 0
KME1 180915Z 20008KT 11/05 A3002 RMK A01 T01140054  RH  067%=      5-min Rain = 0
KME1 180916Z 20007KT 11/05 A3002 RMK A01 T01130054  RH  067%=      5-min Rain = 0
KME1 180917Z 20008KT 11/05 A3002 RMK A01 T01140054  RH  067%=      5-min Rain = 0
KME1 180918Z 20007KT 11/05 A3002 RMK A01 T01130054  RH  067%=      5-min Rain = 0
KME1 180919Z 19007KT 11/05 A3002 RMK A01 T01130054  RH  067%=      5-min Rain = 0
KME1 180920Z 20008KT 11/05 A3002 RMK A01 T01130054  RH  067%=      5-min Rain = 0
KME1 180921Z 20007KT 11/06 A3002 RMK A01 T01130055  RH  067%=      5-min Rain = 0
KME1 180922Z 20007KT 11/06 A3002 RMK A01 T01130055  RH  067%=      5-min Rain = 0
KME1 180923Z 19007KT 11/06 A3002 RMK A01 T01130055  RH  067%=      5-min Rain = 0
KME1 180924Z 19008KT 11/06 A3001 RMK A01 T01130055  RH  067%=      5-min Rain = 0
KME1 180925Z 20008KT 11/06 A3001 RMK A01 T01130055  RH  067%=      5-min Rain = 0
KME1 180926Z 20008KT 11/06 A3001 RMK A01 T01140055  RH  067%=      5-min Rain = 0
KME1 180927Z 19009KT 11/06 A3001 RMK A01 T01140055  RH  067%=      5-min Rain = 0
KME1 180928Z 20010KT 12/06 A3001 RMK A01 T01150056  RH  067%=      5-min Rain = 0
KME1 180929Z 19009KT 12/06 A3001 RMK A01 T01150056  RH  067%=      5-min Rain = 0
KME1 180930Z 20008KT 12/06 A3001 RMK A01 T01150056  RH  067%=      5-min Rain = 0
KME1 180931Z 20010KT 12/06 A3001 RMK A01 T01150056  RH  067%=      5-min Rain = 0
KME1 180932Z 19008KT 12/06 A3001 RMK A01 T01150056  RH  067%=      5-min Rain = 0
KME1 180933Z 20008KT 12/06 A3001 RMK A01 T01150056  RH  067%=      5-min Rain = 0
KME1 180934Z 20010KT 12/06 A3001 RMK A01 T01150056  RH  067%=      5-min Rain = 0
KME1 180935Z 19011KT 11/06 A3001 RMK A01 T01140056  RH  067%=      5-min Rain = 0
KME1 180936Z 19011KT 11/06 A3001 RMK A01 T01140056  RH  067%=      5-min Rain = 0
KME1 180937Z 19010G15KT 11/06 A3001 RMK A01 T01140056  RH  067%=      5-min Rain = 0
KME1 180938Z 20010KT 11/06 A3001 RMK A01 T01140056  RH  067%=      5-min Rain = 0
KME1 180939Z 19010KT 12/06 A30 RMK A01 T01150057  RH  068%=      5-min Rain = 0
KME1 180940Z 20011KT 11/06 A30 RMK A01 T01140057  RH  068%=      5-min Rain = 0
KME1 180941Z 20012KT 12/06 A30 RMK A01 T01150057  RH  067%=      5-min Rain = 0
KME1 180942Z 20010KT 12/06 A30 RMK A01 T01150057  RH  068%=      5-min Rain = 0
KME1 180943Z 20009KT 11/06 A30 RMK A01 T01140057  RH  068%=      5-min Rain = 0
KME1 180944Z 19013KT 11/06 A30 RMK A01 T01140058  RH  068%=      5-min Rain = 0
KME1 180945Z 20012KT 11/06 A30 RMK A01 T01140057  RH  068%=      5-min Rain = 0
KME1 180946Z 20011KT 12/06 A30 RMK A01 T01150058  RH  068%=      5-min Rain = 0
KME1 180947Z 20012KT 11/06 A30 RMK A01 T01140057  RH  068%=      5-min Rain = 0
KME1 180948Z 20011KT 12/06 A30 RMK A01 T01150058  RH  068%=      5-min Rain = 0
KME1 180949Z 20012KT 12/06 A30 RMK A01 T01150058  RH  068%=      5-min Rain = 0
KME1 180950Z 19010KT 12/06 A30 RMK A01 T01150058  RH  068%=      5-min Rain = 0
KME1 180951Z 20011KT 11/06 A30 RMK A01 T01140058  RH  068%=      5-min Rain = 0
KME1 180952Z 20009KT 12/06 A30 RMK A01 T01150059  RH  069%=      5-min Rain = 0
KME1 180953Z 19011G17KT 11/06 A30 RMK A01 T01140059  RH  069%=      5-min Rain = 0
KME1 180954Z 20011KT 11/06 A30 RMK A01 T01140059  RH  069%=      5-min Rain = 0
KME1 180955Z 20012KT 11/06 A30 RMK A01 T01140059  RH  069%=      5-min Rain = 0
KME1 180956Z 19012KT 12/06 A30 RMK A01 T01150059  RH  069%=      5-min Rain = 0
KME1 180957Z 19011KT 12/06 A30 RMK A01 T01150060  RH  069%=      5-min Rain = 0
KME1 180958Z 20012KT 12/06 A30 RMK A01 T01150060  RH  069%=      5-min Rain = 0
KME1 180959Z 20012KT 12/06 A30 RMK A01 T01150060  RH  069%=      5-min Rain = 0
KME1 181000Z 20012KT 12/06 A30 RMK A01 T01150060  RH  069%=      5-min Rain = 0
KME1 181001Z 20012KT 12/06 A30 RMK A01 T01150060  RH  069%=      5-min Rain = 0
KME1 181002Z 20012KT 12/06 A30 RMK A01 T01150060  RH  069%=      5-min Rain = 0
KME1 181003Z 20011KT 12/06 A30 RMK A01 T01150060  RH  069%=      5-min Rain = 0
KME1 181004Z 20012KT 12/06 A30 RMK A01 T01150060  RH  069%=      5-min Rain = 0
KME1 181005Z 19011KT 12/06 A30 RMK A01 T01150061  RH  069%=      5-min Rain = 0
KME1 181006Z 20011KT 12/06 A30 RMK A01 T01150061  RH  069%=      5-min Rain = 0
KME1 181007Z 20011KT 12/06 A30 RMK A01 T01160061  RH  069%=      5-min Rain = 0
KME1 181008Z 19012KT 12/06 A30 RMK A01 T01160061  RH  069%=      5-min Rain = 0
KME1 181009Z 20012KT 12/06 A2999 RMK A01 T01150061  RH  069%=      5-min Rain = 0
KME1 181010Z 19011KT 12/06 A2999 RMK A01 T01150061  RH  069%=      5-min Rain = 0
KME1 181011Z 19011KT 12/06 A2999 RMK A01 T01160061  RH  069%=      5-min Rain = 0
KME1 181012Z 19011KT 12/06 A2999 RMK A01 T01150061  RH  069%=      5-min Rain = 0
KME1 181013Z 19011KT 12/06 A2999 RMK A01 T01150061  RH  070%=      5-min Rain = 0
KME1 181014Z 19012KT 11/06 A2999 RMK A01 T01140061  RH  070%=      5-min Rain = 0
KME1 181015Z 19011KT 11/06 A2999 RMK A01 T01140062  RH  070%=      5-min Rain = 0
KME1 181016Z 19010KT 11/06 A2999 RMK A01 T01140062  RH  070%=      5-min Rain = 0
KME1 181017Z 19012KT 11/06 A2999 RMK A01 T01140062  RH  070%=      5-min Rain = 0
KME1 181018Z 19011KT 11/06 A2999 RMK A01 T01140062  RH  070%=      5-min Rain = 0
KME1 181019Z 19011KT 11/06 A2999 RMK A01 T01140062  RH  070%=      5-min Rain = 0
KME1 181020Z 20012KT 11/06 A2999 RMK A01 T01140062  RH  071%=      5-min Rain = 0
KME1 181021Z 19012KT 11/06 A2999 RMK A01 T01140062  RH  071%=      5-min Rain = 0
KME1 181022Z 19012KT 11/06 A2999 RMK A01 T01140063  RH  071%=      5-min Rain = 0
KME1 181023Z 19011KT 11/06 A2999 RMK A01 T01140062  RH  071%=      5-min Rain = 0
KME1 181024Z 20013KT 11/06 A2999 RMK A01 T01140062  RH  071%=      5-min Rain = 0
KME1 181025Z 20012KT 11/06 A2999 RMK A01 T01140063  RH  071%=      5-min Rain = 0
KME1 181026Z 20011KT 11/06 A2999 RMK A01 T01140063  RH  070%=      5-min Rain = 0
KME1 181027Z 19011KT 12/06 A2999 RMK A01 T01150063  RH  071%=      5-min Rain = 0
KME1 181028Z 19010KT 11/06 A2999 RMK A01 T01140063  RH  071%=      5-min Rain = 0
KME1 181029Z 20011KT 11/06 A2999 RMK A01 T01140063  RH  071%=      5-min Rain = 0
KME1 181030Z 20011KT 11/06 A2999 RMK A01 T01140063  RH  071%=      5-min Rain = 0
KME1 181031Z 19011KT 11/06 A2999 RMK A01 T01140063  RH  071%=      5-min Rain = 0
KME1 181032Z 19011KT 11/06 A2999 RMK A01 T01140063  RH  071%=      5-min Rain = 0
KME1 181033Z 20011KT 11/06 A2999 RMK A01 T01140063  RH  071%=      5-min Rain = 0
KME1 181034Z 20010KT 11/06 A2999 RMK A01 T01130063  RH  071%=      5-min Rain = 0
KME1 181035Z 20011KT 11/06 A2998 RMK A01 T01130064  RH  072%=      5-min Rain = 0
KME1 181036Z 20010KT 11/06 A2998 RMK A01 T01130064  RH  072%=      5-min Rain = 0
KME1 181037Z 20010KT 11/06 A2998 RMK A01 T01130064  RH  072%=      5-min Rain = 0
KME1 181038Z 20009KT 11/06 A2998 RMK A01 T01130064  RH  072%=      5-min Rain = 0
KME1 181039Z 20010KT 11/06 A2998 RMK A01 T01120064  RH  072%=      5-min Rain = 0
KME1 181040Z 19008KT 11/06 A2998 RMK A01 T01120064  RH  072%=      5-min Rain = 0
KME1 181041Z 20008KT 11/06 A2998 RMK A01 T01120064  RH  072%=      5-min Rain = 0
KME1 181042Z 20009KT 11/06 A2998 RMK A01 T01110064  RH  073%=      5-min Rain = 0
KME1 181043Z 19009KT 11/06 A2998 RMK A01 T01110064  RH  073%=      5-min Rain = 0
KME1 181044Z 19010KT 11/06 A2998 RMK A01 T01100064  RH  073%=      5-min Rain = 0
KME1 181045Z 20010KT 11/06 A2998 RMK A01 T01100064  RH  073%=      5-min Rain = 0
KME1 181046Z 19010KT 11/06 A2998 RMK A01 T01100064  RH  073%=      5-min Rain = 0
KME1 181047Z 19009KT 11/06 A2998 RMK A01 T01100064  RH  073%=      5-min Rain = 0
KME1 181048Z 19009KT 11/06 A2998 RMK A01 T01100064  RH  073%=      5-min Rain = 0
KME1 181049Z 19008KT 11/06 A2998 RMK A01 T01100064  RH  073%=      5-min Rain = 0
KME1 181050Z 19009KT 11/06 A2998 RMK A01 T01100064  RH  073%=      5-min Rain = 0
KME1 181051Z 19009KT 11/06 A2998 RMK A01 T01100064  RH  074%=      5-min Rain = 0
KME1 181052Z 19009KT 11/06 A2998 RMK A01 T01090064  RH  074%=      5-min Rain = 0
KME1 181053Z 19008KT 11/06 A2998 RMK A01 T01090064  RH  074%=      5-min Rain = 0
KME1 181054Z 19010KT 11/06 A2998 RMK A01 T01090064  RH  074%=      5-min Rain = 0
KME1 181055Z 19009KT 11/06 A2998 RMK A01 T01090064  RH  074%=      5-min Rain = 0
KME1 181056Z 19009KT 11/07 A2998 RMK A01 T01090065  RH  074%=      5-min Rain = 0
KME1 181057Z 19008KT 11/07 A2998 RMK A01 T01090065  RH  074%=      5-min Rain = 0
KME1 181058Z 19008KT 11/07 A2998 RMK A01 T01090065  RH  074%=      5-min Rain = 0
KME1 181059Z 19009KT 11/07 A2998 RMK A01 T01080065  RH  075%=      5-min Rain = 0
KME1 181100Z 19009KT 11/07 A2998 RMK A01 T01080065  RH  075%=      5-min Rain = 0
KME1 181101Z 19008KT 11/07 A2998 RMK A01 T01080065  RH  075%=      5-min Rain = 0
KME1 181102Z 19009KT 11/07 A2998 RMK A01 T01080065  RH  075%=      5-min Rain = 0
KME1 181103Z 19009KT 11/07 A2998 RMK A01 T01080066  RH  075%=      5-min Rain = 0
KME1 181104Z 19009KT 11/07 A2998 RMK A01 T01080065  RH  075%=      5-min Rain = 0
KME1 181105Z 19010KT 11/07 A2997 RMK A01 T01070065  RH  075%=      5-min Rain = 0
KME1 181106Z 19009KT 11/07 A2997 RMK A01 T01080065  RH  075%=      5-min Rain = 0
KME1 181107Z 19010KT 11/07 A2997 RMK A01 T01080065  RH  075%=      5-min Rain = 0
KME1 181108Z 19010KT 11/07 A2997 RMK A01 T01080066  RH  075%=      5-min Rain = 0
KME1 181109Z 19009KT 11/07 A2997 RMK A01 T01080066  RH  075%=      5-min Rain = 0
KME1 181110Z 19009KT 11/07 A2997 RMK A01 T01080066  RH  075%=      5-min Rain = 0
KME1 181111Z 19009KT 11/07 A2997 RMK A01 T01070066  RH  075%=      5-min Rain = 0
KME1 181112Z 19009KT 11/07 A2997 RMK A01 T01070066  RH  076%=      5-min Rain = 0
KME1 181113Z 19009KT 11/07 A2997 RMK A01 T01070066  RH  076%=      5-min Rain = 0
KME1 181114Z 19009KT 11/07 A2997 RMK A01 T01070066  RH  076%=      5-min Rain = 0
KME1 181115Z 19008KT 11/07 A2997 RMK A01 T01060065  RH  076%=      5-min Rain = 0
KME1 181116Z 19008KT 11/07 A2997 RMK A01 T01060066  RH  076%=      5-min Rain = 0
KME1 181117Z 19008KT 11/07 A2997 RMK A01 T01060066  RH  076%=      5-min Rain = 0
KME1 181118Z 19009KT 11/07 A2997 RMK A01 T01060066  RH  076%=      5-min Rain = 0
KME1 181119Z 19008KT 11/07 A2997 RMK A01 T01060067  RH  077%=      5-min Rain = 0
KME1 181120Z 19009KT 11/07 A2997 RMK A01 T01060066  RH  077%=      5-min Rain = 0
KME1 181121Z 19008KT 11/07 A2997 RMK A01 T01060067  RH  077%=      5-min Rain = 0
KME1 181122Z 19009KT 11/07 A2997 RMK A01 T01060067  RH  077%=      5-min Rain = 0
KME1 181123Z 19009KT 11/07 A2997 RMK A01 T01060067  RH  077%=      5-min Rain = 0
KME1 181124Z 19010KT 11/07 A2997 RMK A01 T01060067  RH  077%=      5-min Rain = 0
KME1 181125Z 19009KT 11/07 A2997 RMK A01 T01070068  RH  077%=      5-min Rain = 0
KME1 181126Z 19009KT 11/07 A2997 RMK A01 T01070068  RH  077%=      5-min Rain = 0
KME1 181127Z 19009KT 11/07 A2996 RMK A01 T01070068  RH  077%=      5-min Rain = 0
KME1 181128Z 19009KT 11/07 A2996 RMK A01 T01070068  RH  077%=      5-min Rain = 0
KME1 181129Z 19010KT 11/07 A2996 RMK A01 T01060068  RH  077%=      5-min Rain = 0
KME1 181130Z 19011KT 11/07 A2996 RMK A01 T01060068  RH  077%=      5-min Rain = 0
KME1 181131Z 19009KT 11/07 A2996 RMK A01 T01060068  RH  077%=      5-min Rain = 0
KME1 181132Z 19010KT 11/07 A2996 RMK A01 T01060069  RH  077%=      5-min Rain = 0
KME1 181133Z 19010KT 11/07 A2996 RMK A01 T01060069  RH  077%=      5-min Rain = 0
KME1 181134Z 19010KT 11/07 A2996 RMK A01 T01070069  RH  078%=      5-min Rain = 0
KME1 181135Z 19010KT 11/07 A2996 RMK A01 T01070069  RH  077%=      5-min Rain = 0
KME1 181136Z 20009KT 11/07 A2996 RMK A01 T01070069  RH  077%=      5-min Rain = 0
KME1 181137Z 19011KT 11/07 A2996 RMK A01 T01070069  RH  077%=      5-min Rain = 0
KME1 181138Z 19009KT 11/07 A2996 RMK A01 T01070069  RH  077%=      5-min Rain = 0
KME1 181139Z 19009KT 11/07 A2996 RMK A01 T01080069  RH  077%=      5-min Rain = 0
KME1 181140Z 19010KT 11/07 A2996 RMK A01 T01070069  RH  077%=      5-min Rain = 0
KME1 181141Z 19009KT 11/07 A2996 RMK A01 T01070069  RH  077%=      5-min Rain = 0
KME1 181142Z 19010KT 11/07 A2996 RMK A01 T01070069  RH  077%=      5-min Rain = 0
KME1 181143Z 19010KT 11/07 A2996 RMK A01 T01070069  RH  077%=      5-min Rain = 0
KME1 181144Z 19009KT 11/07 A2996 RMK A01 T01070068  RH  077%=      5-min Rain = 0
KME1 181145Z 19008KT 11/07 A2996 RMK A01 T01070068  RH  077%=      5-min Rain = 0
KME1 181146Z 19008KT 11/07 A2996 RMK A01 T01060068  RH  077%=      5-min Rain = 0
KME1 181147Z 19009KT 11/07 A2996 RMK A01 T01060068  RH  077%=      5-min Rain = 0
KME1 181148Z 19009KT 11/07 A2996 RMK A01 T01060068  RH  077%=      5-min Rain = 0
KME1 181149Z 19011KT 11/07 A2996 RMK A01 T01050068  RH  078%=      5-min Rain = 0
KME1 181150Z 19010KT 11/07 A2995 RMK A01 T01060068  RH  077%=      5-min Rain = 0
KME1 181151Z 19008KT 11/07 A2996 RMK A01 T01060068  RH  077%=      5-min Rain = 0
KME1 181152Z 19009KT 11/07 A2995 RMK A01 T01060068  RH  077%=      5-min Rain = 0
KME1 181153Z 19010KT 11/07 A2996 RMK A01 T01060068  RH  078%=      5-min Rain = 0
KME1 181154Z 19009KT 11/07 A2996 RMK A01 T01050068  RH  078%=      5-min Rain = 0
KME1 181155Z 20009KT 11/07 A2996 RMK A01 T01050068  RH  077%=      5-min Rain = 0
KME1 181156Z 20008KT 11/07 A2996 RMK A01 T01050067  RH  078%=      5-min Rain = 0
KME1 181157Z 19009KT 11/07 A2996 RMK A01 T01050068  RH  078%=      5-min Rain = 0
KME1 181158Z 19009KT 10/07 A2995 RMK A01 T01040067  RH  078%=      5-min Rain = 0
KME1 181159Z 19009KT 10/07 A2995 RMK A01 T01040068  RH  078%=      5-min Rain = 0
KME1 181200Z 19009KT 10/07 A2995 RMK A01 T01040068  RH  078%=      5-min Rain = 0
KME1 181201Z 19009KT 10/07 A2995 RMK A01 T01040068  RH  078%=      5-min Rain = 0
KME1 181202Z 19008KT 10/07 A2995 RMK A01 T01040068  RH  078%=      5-min Rain = 0
KME1 181203Z 19008KT 10/07 A2995 RMK A01 T01030067  RH  078%=      5-min Rain = 0
KME1 181204Z 19008KT 10/07 A2995 RMK A01 T01030067  RH  078%=      5-min Rain = 0
KME1 181205Z 19008KT 10/07 A2995 RMK A01 T01020067  RH  079%=      5-min Rain = 0
KME1 181206Z 19009KT 10/07 A2995 RMK A01 T01030067  RH  079%=      5-min Rain = 0
KME1 181207Z 18010KT 10/07 A2995 RMK A01 T01020067  RH  079%=      5-min Rain = 0
KME1 181208Z 18011KT 10/07 A2995 RMK A01 T01020067  RH  079%=      5-min Rain = 0
KME1 181209Z 19010KT 10/07 A2995 RMK A01 T01020067  RH  079%=      5-min Rain = 0
KME1 181210Z 19009KT 10/07 A2995 RMK A01 T01020067  RH  079%=      5-min Rain = 0
KME1 181211Z 19009KT 10/07 A2995 RMK A01 T01010067  RH  079%=      5-min Rain = 0
KME1 181212Z 19009KT 10/07 A2995 RMK A01 T01010067  RH  079%=      5-min Rain = 0
KME1 181213Z 19010KT 10/07 A2995 RMK A01 T01010066  RH  079%=      5-min Rain = 0
KME1 181214Z 19009KT 10/07 A2995 RMK A01 T01010066  RH  079%=      5-min Rain = 0
KME1 181215Z 19010KT 10/07 A2995 RMK A01 T01010066  RH  079%=      5-min Rain = 0
KME1 181216Z 19009KT 10/07 A2995 RMK A01 T01000066  RH  079%=      5-min Rain = 0
KME1 181217Z 19010KT 10/07 A2995 RMK A01 T00990066  RH  079%=      5-min Rain = 0
KME1 181218Z 19010KT 10/07 A2995 RMK A01 T00990066  RH  080%=      5-min Rain = 0
KME1 181219Z 19008KT 10/07 A2995 RMK A01 T00990066  RH  079%=      5-min Rain = 0
KME1 181220Z 19009KT 10/07 A2995 RMK A01 T00990065  RH  079%=      5-min Rain = 0
KME1 181221Z 19010KT 10/07 A2995 RMK A01 T00990065  RH  080%=      5-min Rain = 0
KME1 181222Z 19009KT 10/07 A2995 RMK A01 T00980065  RH  080%=      5-min Rain = 0
KME1 181223Z 19009KT 10/07 A2995 RMK A01 T00980065  RH  080%=      5-min Rain = 0
KME1 181224Z 19009KT 10/07 A2995 RMK A01 T00970065  RH  080%=      5-min Rain = 0
KME1 181225Z 19008KT 10/07 A2995 RMK A01 T00980065  RH  080%=      5-min Rain = 0
KME1 181226Z 19010KT 10/07 A2995 RMK A01 T00970065  RH  080%=      5-min Rain = 0
KME1 181227Z 19009KT 10/07 A2995 RMK A01 T00970065  RH  081%=      5-min Rain = 0
KME1 181228Z 18008KT 10/07 A2995 RMK A01 T00970065  RH  081%=      5-min Rain = 0
KME1 181229Z 19009KT 10/07 A2995 RMK A01 T00960065  RH  081%=      5-min Rain = 0
KME1 181230Z 19009KT 10/06 A2995 RMK A01 T00960064  RH  081%=      5-min Rain = 0
KME1 181231Z 18009KT 10/06 A2995 RMK A01 T00960064  RH  081%=      5-min Rain = 0
KME1 181232Z 19009KT 10/06 A2995 RMK A01 T00960064  RH  081%=      5-min Rain = 0
KME1 181233Z 19008KT 10/06 A2995 RMK A01 T00950064  RH  081%=      5-min Rain = 0
KME1 181234Z 19010KT 10/06 A2995 RMK A01 T00950064  RH  081%=      5-min Rain = 0
KME1 181235Z 18008KT 10/06 A2995 RMK A01 T00950064  RH  081%=      5-min Rain = 0
KME1 181236Z 18009KT 10/06 A2995 RMK A01 T00950064  RH  081%=      5-min Rain = 0
KME1 181237Z 19009KT 10/06 A2995 RMK A01 T00950064  RH  081%=      5-min Rain = 0
KME1 181238Z 19009KT 10/06 A2995 RMK A01 T00950064  RH  081%=      5-min Rain = 0
KME1 181239Z 18009KT 10/06 A2995 RMK A01 T00950064  RH  081%=      5-min Rain = 0
KME1 181240Z 18009KT 10/06 A2995 RMK A01 T00950064  RH  081%=      5-min Rain = 0
KME1 181241Z 18009KT 10/06 A2995 RMK A01 T00950064  RH  081%=      5-min Rain = 0
KME1 181242Z 18009KT 10/06 A2995 RMK A01 T00950063  RH  081%=      5-min Rain = 0
KME1 181243Z 18010KT 10/06 A2995 RMK A01 T00950063  RH  081%=      5-min Rain = 0
KME1 181244Z 19009KT 10/06 A2995 RMK A01 T00950063  RH  080%=      5-min Rain = 0
KME1 181245Z 19009KT 10/06 A2995 RMK A01 T00950064  RH  081%=      5-min Rain = 0
KME1 181246Z 19010KT 10/06 A2995 RMK A01 T00950064  RH  081%=      5-min Rain = 0
KME1 181247Z 19011KT 10/06 A2995 RMK A01 T00950063  RH  080%=      5-min Rain = 0
KME1 181248Z 19009KT 10/06 A2995 RMK A01 T00960063  RH  080%=      5-min Rain = 0
KME1 181249Z 19010KT 10/06 A2995 RMK A01 T00960063  RH  080%=      5-min Rain = 0
KME1 181250Z 19010KT 10/06 A2995 RMK A01 T00960063  RH  080%=      5-min Rain = 0
KME1 181251Z 19009KT 10/06 A2995 RMK A01 T00960063  RH  080%=      5-min Rain = 0
KME1 181252Z 20009KT 10/06 A2994 RMK A01 T00960063  RH  080%=      5-min Rain = 0
KME1 181253Z 19010KT 10/06 A2994 RMK A01 T00960062  RH  079%=      5-min Rain = 0
KME1 181254Z 19009KT 10/06 A2994 RMK A01 T00970063  RH  079%=      5-min Rain = 0
KME1 181255Z 19010KT 10/06 A2994 RMK A01 T00960063  RH  079%=      5-min Rain = 0
KME1 181256Z 19010KT 10/06 A2994 RMK A01 T00970063  RH  079%=      5-min Rain = 0
KME1 181257Z 19010KT 10/06 A2994 RMK A01 T00970062  RH  079%=      5-min Rain = 0
KME1 181258Z 19010KT 10/06 A2994 RMK A01 T00970062  RH  079%=      5-min Rain = 0
KME1 181259Z 19010KT 10/06 A2994 RMK A01 T00960062  RH  079%=      5-min Rain = 0
KME1 181300Z 19010KT 10/06 A2994 RMK A01 T00960063  RH  079%=      5-min Rain = 0
KME1 181301Z 19011KT 10/06 A2994 RMK A01 T00970063  RH  079%=      5-min Rain = 0
KME1 181302Z 19011KT 10/06 A2994 RMK A01 T00960063  RH  080%=      5-min Rain = 0
KME1 181303Z 20010KT 10/06 A2994 RMK A01 T00970063  RH  079%=      5-min Rain = 0
KME1 181304Z 19009KT 10/06 A2994 RMK A01 T00970063  RH  079%=      5-min Rain = 0
KME1 181305Z 19011KT 10/06 A2994 RMK A01 T00960063  RH  080%=      5-min Rain = 0
KME1 181306Z 19009KT 10/06 A2994 RMK A01 T00960063  RH  080%=      5-min Rain = 0
KME1 181307Z 19012KT 10/06 A2994 RMK A01 T00960063  RH  080%=      5-min Rain = 0
KME1 181308Z 19011KT 10/06 A2994 RMK A01 T00960063  RH  080%=      5-min Rain = 0
KME1 181309Z 19010KT 10/06 A2994 RMK A01 T00960063  RH  080%=      5-min Rain = 0
KME1 181310Z 19011KT 10/06 A2994 RMK A01 T00960063  RH  080%=      5-min Rain = 0
KME1 181311Z 19010KT 10/06 A2994 RMK A01 T00960063  RH  080%=      5-min Rain = 0
KME1 181312Z 19010KT 10/06 A2994 RMK A01 T00960063  RH  080%=      5-min Rain = 0
KME1 181313Z 19010KT 10/06 A2994 RMK A01 T00960064  RH  080%=      5-min Rain = 0
KME1 181314Z 19010KT 10/06 A2994 RMK A01 T00960064  RH  080%=      5-min Rain = 0
KME1 181315Z 20010KT 10/06 A2994 RMK A01 T00960063  RH  080%=      5-min Rain = 0
KME1 181316Z 19011KT 10/06 A2994 RMK A01 T00960063  RH  080%=      5-min Rain = 0
KME1 181317Z 19010KT 10/06 A2994 RMK A01 T00960064  RH  080%=      5-min Rain = 0
KME1 181318Z 19011KT 10/06 A2994 RMK A01 T00960064  RH  081%=      5-min Rain = 0
KME1 181319Z 19010KT 10/06 A2994 RMK A01 T00960064  RH  081%=      5-min Rain = 0
KME1 181320Z 19010KT 10/06 A2994 RMK A01 T00960064  RH  080%=      5-min Rain = 0
KME1 181321Z 20010KT 10/06 A2994 RMK A01 T00960064  RH  081%=      5-min Rain = 0
KME1 181322Z 19010KT 10/06 A2994 RMK A01 T00960064  RH  081%=      5-min Rain = 0
KME1 181323Z 19010KT 10/07 A2994 RMK A01 T00960065  RH  081%=      5-min Rain = 0
KME1 181324Z 20009KT 10/07 A2994 RMK A01 T00960065  RH  081%=      5-min Rain = 0
KME1 181325Z 19009G14KT 10/06 A2994 RMK A01 T00960064  RH  081%=      5-min Rain = 0
KME1 181326Z 20010KT 10/07 A2994 RMK A01 T00960065  RH  081%=      5-min Rain = 0
KME1 181327Z 20009KT 10/07 A2995 RMK A01 T00960065  RH  081%=      5-min Rain = 0
KME1 181328Z 20010KT 10/07 A2995 RMK A01 T00960065  RH  081%=      5-min Rain = 0
KME1 181329Z 20010KT 10/07 A2995 RMK A01 T00970065  RH  081%=      5-min Rain = 0
KME1 181330Z 20008KT 10/07 A2995 RMK A01 T00960065  RH  081%=      5-min Rain = 0
KME1 181331Z 20009KT 10/07 A2995 RMK A01 T00950065  RH  081%=      5-min Rain = 0
KME1 181332Z 20009KT 10/07 A2995 RMK A01 T00950065  RH  081%=      5-min Rain = 0
KME1 181333Z 20010KT 10/07 A2995 RMK A01 T00950065  RH  081%=      5-min Rain = 0
KME1 181334Z 19010KT 10/07 A2995 RMK A01 T00950065  RH  081%=      5-min Rain = 0
KME1 181335Z 19010KT 10/07 A2995 RMK A01 T00960065  RH  081%=      5-min Rain = 0
KME1 181336Z 19009KT 10/07 A2995 RMK A01 T00960065  RH  081%=      5-min Rain = 0
KME1 181337Z 20009KT 10/07 A2995 RMK A01 T00950065  RH  081%=      5-min Rain = 0
KME1 181338Z 20009KT 10/07 A2995 RMK A01 T00950065  RH  081%=      5-min Rain = 0
KME1 181339Z 19009KT 10/06 A2995 RMK A01 T00950064  RH  081%=      5-min Rain = 0
KME1 181340Z 19010KT 10/07 A2994 RMK A01 T00960065  RH  081%=      5-min Rain = 0
KME1 181341Z 19010KT 10/06 A2994 RMK A01 T00960064  RH  081%=      5-min Rain = 0
KME1 181342Z 19011KT 10/06 A2994 RMK A01 T00960064  RH  081%=      5-min Rain = 0
KME1 181343Z 19011KT 10/07 A2994 RMK A01 T00960065  RH  081%=      5-min Rain = 0
KME1 181344Z 20008KT 10/06 A2995 RMK A01 T00970064  RH  080%=      5-min Rain = 0
KME1 181345Z 19012KT 10/06 A2994 RMK A01 T00960064  RH  080%=      5-min Rain = 0
KME1 181346Z 20011KT 10/06 A2995 RMK A01 T00960064  RH  080%=      5-min Rain = 0
KME1 181347Z 19009KT 10/06 A2995 RMK A01 T00970064  RH  080%=      5-min Rain = 0
KME1 181348Z 19009KT 10/06 A2995 RMK A01 T00970064  RH  080%=      5-min Rain = 0
KME1 181349Z 19009KT 10/06 A2994 RMK A01 T00970064  RH  080%=      5-min Rain = 0
KME1 181350Z 19010KT 10/06 A2994 RMK A01 T00960064  RH  080%=      5-min Rain = 0
KME1 181351Z 19010KT 10/06 A2994 RMK A01 T00970064  RH  080%=      5-min Rain = 0
KME1 181352Z 20010KT 10/06 A2994 RMK A01 T00980064  RH  080%=      5-min Rain = 0
KME1 181353Z 19011KT 10/06 A2994 RMK A01 T00980064  RH  080%=      5-min Rain = 0
KME1 181354Z 20010KT 10/06 A2994 RMK A01 T00980064  RH  080%=      5-min Rain = 0
KME1 181355Z 19010KT 10/06 A2994 RMK A01 T00970064  RH  080%=      5-min Rain = 0
KME1 181356Z 19009KT 10/06 A2995 RMK A01 T00970064  RH  080%=      5-min Rain = 0
KME1 181357Z 20011KT 10/06 A2994 RMK A01 T00970064  RH  080%=      5-min Rain = 0
KME1 181358Z 20010KT 10/06 A2994 RMK A01 T00970064  RH  080%=      5-min Rain = 0
KME1 181359Z 19011KT 10/06 A2994 RMK A01 T00970064  RH  080%=      5-min Rain = 0
KME1 181400Z 19011KT 10/06 A2994 RMK A01 T00970064  RH  080%=      5-min Rain = 0
KME1 181401Z 19011KT 10/06 A2994 RMK A01 T00970064  RH  080%=      5-min Rain = 0
KME1 181402Z 19010KT 10/06 A2994 RMK A01 T00970064  RH  080%=      5-min Rain = 0
KME1 181403Z 19010G15KT 10/06 A2994 RMK A01 T00970064  RH  080%=      5-min Rain = 0
KME1 181404Z 19011KT 10/06 A2994 RMK A01 T00970064  RH  080%=      5-min Rain = 0
KME1 181405Z 19010G15KT 10/06 A2994 RMK A01 T00970064  RH  080%=      5-min Rain = 0
KME1 181406Z 19011KT 10/06 A2994 RMK A01 T00960064  RH  080%=      5-min Rain = 0
KME1 181407Z 19010KT 10/07 A2994 RMK A01 T00960065  RH  081%=      5-min Rain = 0
KME1 181408Z 19011KT 10/07 A2994 RMK A01 T00960065  RH  081%=      5-min Rain = 0
KME1 181409Z 19011KT 10/07 A2994 RMK A01 T00970065  RH  081%=      5-min Rain = 0
KME1 181410Z 19012KT 10/07 A2994 RMK A01 T00970065  RH  081%=      5-min Rain = 0
KME1 181411Z 19011KT 10/07 A2994 RMK A01 T00970065  RH  081%=      5-min Rain = 0
KME1 181412Z 19009KT 10/07 A2994 RMK A01 T00970065  RH  080%=      5-min Rain = 0
KME1 181413Z 19011KT 10/07 A2994 RMK A01 T00970065  RH  081%=      5-min Rain = 0
KME1 181414Z 19011KT 10/07 A2993 RMK A01 T00970065  RH  081%=      5-min Rain = 0
KME1 181415Z 19011KT 10/07 A2993 RMK A01 T00970065  RH  081%=      5-min Rain = 0
KME1 181416Z 19010KT 10/07 A2993 RMK A01 T00970065  RH  081%=      5-min Rain = 0
KME1 181417Z 19011KT 10/07 A2993 RMK A01 T00970065  RH  081%=      5-min Rain = 0
KME1 181418Z 19010KT 10/07 A2993 RMK A01 T00970065  RH  081%=      5-min Rain = 0
KME1 181419Z 19010KT 10/07 A2993 RMK A01 T00970065  RH  081%=      5-min Rain = 0
KME1 181420Z 19010KT 10/07 A2993 RMK A01 T00960065  RH  081%=      5-min Rain = 0
KME1 181421Z 19011KT 10/07 A2993 RMK A01 T00960065  RH  081%=      5-min Rain = 0
KME1 181422Z 19011KT 10/07 A2993 RMK A01 T00960065  RH  081%=      5-min Rain = 0
KME1 181423Z 19010KT 10/07 A2993 RMK A01 T00970065  RH  080%=      5-min Rain = 0
KME1 181424Z 19010KT 10/07 A2993 RMK A01 T00970065  RH  080%=      5-min Rain = 0
KME1 181425Z 19011KT 10/06 A2993 RMK A01 T00970064  RH  080%=      5-min Rain = 0
KME1 181426Z 19010KT 10/07 A2993 RMK A01 T00970065  RH  080%=      5-min Rain = 0
KME1 181427Z 19010KT 10/06 A2993 RMK A01 T00970064  RH  080%=      5-min Rain = 0
KME1 181428Z 19009KT 10/06 A2993 RMK A01 T00970064  RH  080%=      5-min Rain = 0
KME1 181429Z 19010KT 10/06 A2993 RMK A01 T00960064  RH  080%=      5-min Rain = 0
KME1 181430Z 19011KT 10/06 A2993 RMK A01 T00960064  RH  080%=      5-min Rain = 0
KME1 181431Z 19011KT 10/06 A2993 RMK A01 T00960064  RH  080%=      5-min Rain = 0
KME1 181432Z 19010KT 10/06 A2993 RMK A01 T00970064  RH  080%=      5-min Rain = 0
KME1 181433Z 19010KT 10/06 A2993 RMK A01 T00970064  RH  080%=      5-min Rain = 0
KME1 181434Z 19010KT 10/06 A2993 RMK A01 T00970064  RH  080%=      5-min Rain = 0
KME1 181435Z 19010KT 10/07 A2993 RMK A01 T00970065  RH  080%=      5-min Rain = 0
KME1 181436Z 19009KT 10/06 A2993 RMK A01 T00970064  RH  080%=      5-min Rain = 0
KME1 181437Z 19010KT 10/06 A2993 RMK A01 T00970064  RH  080%=      5-min Rain = 0
KME1 181438Z 19009KT 10/06 A2994 RMK A01 T00970064  RH  080%=      5-min Rain = 0
KME1 181439Z 20011KT 10/06 A2994 RMK A01 T00970064  RH  080%=      5-min Rain = 0
KME1 181440Z 20009KT 10/06 A2994 RMK A01 T00970064  RH  080%=      5-min Rain = 0
KME1 181441Z 20010KT 10/06 A2994 RMK A01 T00980064  RH  080%=      5-min Rain = 0
KME1 181442Z 20010KT 10/07 A2994 RMK A01 T00990065  RH  079%=      5-min Rain = 0
KME1 181443Z 20010KT 10/07 A2994 RMK A01 T00990065  RH  079%=      5-min Rain = 0
KME1 181444Z 19008KT 10/06 A2994 RMK A01 T01000064  RH  079%=      5-min Rain = 0
KME1 181445Z 20010KT 10/06 A2994 RMK A01 T01000064  RH  079%=      5-min Rain = 0
KME1 181446Z 19012KT 10/06 A2994 RMK A01 T01000064  RH  078%=      5-min Rain = 0
KME1 181447Z 19011KT 10/06 A2994 RMK A01 T01020064  RH  078%=      5-min Rain = 0
KME1 181448Z 20011KT 10/06 A2994 RMK A01 T01030064  RH  077%=      5-min Rain = 0
KME1 181449Z 20011KT 10/06 A2994 RMK A01 T01030064  RH  077%=      5-min Rain = 0
KME1 181450Z 20010KT 10/06 A2994 RMK A01 T01040064  RH  076%=      5-min Rain = 0
KME1 181451Z 20011KT 10/06 A2993 RMK A01 T01040064  RH  076%=      5-min Rain = 0
KME1 181452Z 20010KT 11/06 A2993 RMK A01 T01050064  RH  076%=      5-min Rain = 0
KME1 181453Z 20009KT 11/07 A2993 RMK A01 T01050065  RH  076%=      5-min Rain = 0
KME1 181454Z 20011KT 11/07 A2993 RMK A01 T01060065  RH  075%=      5-min Rain = 0
KME1 181455Z 20011KT 11/07 A2993 RMK A01 T01070065  RH  075%=      5-min Rain = 0
KME1 181456Z 20012KT 11/07 A2993 RMK A01 T01090065  RH  074%=      5-min Rain = 0
KME1 181457Z 20010KT 11/07 A2994 RMK A01 T01100065  RH  074%=      5-min Rain = 0
KME1 181458Z 20011KT 11/07 A2993 RMK A01 T01110066  RH  074%=      5-min Rain = 0
KME1 181459Z 20010G15KT 11/07 A2993 RMK A01 T01120066  RH  073%=      5-min Rain = 0
KME1 181500Z 20011KT 11/07 A2993 RMK A01 T01140066  RH  072%=      5-min Rain = 0
KME1 181501Z 20011KT 12/07 A2993 RMK A01 T01150066  RH  072%=      5-min Rain = 0
KME1 181502Z 20011KT 12/07 A2993 RMK A01 T01160066  RH  072%=      5-min Rain = 0
KME1 181503Z 20014KT 12/07 A2993 RMK A01 T01170066  RH  071%=      5-min Rain = 0
KME1 181504Z 19012KT 12/07 A2993 RMK A01 T01180066  RH  071%=      5-min Rain = 0
KME1 181505Z 20014G21KT 12/07 A2993 RMK A01 T01190067  RH  070%=      5-min Rain = 0
KME1 181506Z 20013KT 12/07 A2993 RMK A01 T01200067  RH  070%=      5-min Rain = 0
KME1 181507Z 20014KT 12/07 A2993 RMK A01 T01210067  RH  070%=      5-min Rain = 0
KME1 181508Z 20011KT 12/07 A2993 RMK A01 T01220067  RH  069%=      5-min Rain = 0
KME1 181509Z 20014KT 12/07 A2993 RMK A01 T01220067  RH  069%=      5-min Rain = 0
KME1 181510Z 20014G19KT 12/07 A2993 RMK A01 T01230067  RH  068%=      5-min Rain = 0
KME1 181511Z 19013KT 13/07 A2993 RMK A01 T01250068  RH  068%=      5-min Rain = 0
KME1 181512Z 20015KT 13/07 A2993 RMK A01 T01250068  RH  068%=      5-min Rain = 0
KME1 181513Z 20013KT 13/07 A2993 RMK A01 T01270068  RH  067%=      5-min Rain = 0
KME1 181514Z 20013KT 13/07 A2993 RMK A01 T01280069  RH  067%=      5-min Rain = 0
KME1 181515Z 20015KT 13/07 A2993 RMK A01 T01290068  RH  067%=      5-min Rain = 0
KME1 181516Z 20016KT 13/07 A2993 RMK A01 T01300069  RH  066%=      5-min Rain = 0
KME1 181517Z 20015KT 13/07 A2993 RMK A01 T01300068  RH  066%=      5-min Rain = 0
KME1 181518Z 20016KT 13/07 A2993 RMK A01 T01310069  RH  066%=      5-min Rain = 0
KME1 181519Z 20016KT 13/07 A2993 RMK A01 T01320069  RH  066%=      5-min Rain = 0
KME1 181520Z 20015G20KT 13/07 A2993 RMK A01 T01330069  RH  065%=      5-min Rain = 0
KME1 181521Z 20015G22KT 13/07 A2993 RMK A01 T01330070  RH  066%=      5-min Rain = 0
KME1 181522Z 20016KT 13/07 A2993 RMK A01 T01340070  RH  065%=      5-min Rain = 0
KME1 181523Z 20014G19KT 14/07 A2993 RMK A01 T01350071  RH  065%=      5-min Rain = 0
KME1 181524Z 20015G22KT 14/07 A2993 RMK A01 T01360071  RH  065%=      5-min Rain = 0
KME1 181525Z 20013G18KT 14/07 A2993 RMK A01 T01380074  RH  065%=      5-min Rain = 0
KME1 181526Z 20015G20KT 14/07 A2993 RMK A01 T01390072  RH  064%=      5-min Rain = 0
KME1 181527Z 20017G23KT 14/07 A2993 RMK A01 T01390071  RH  064%=      5-min Rain = 0
KME1 181528Z 20013KT 14/07 A2993 RMK A01 T01390072  RH  064%=      5-min Rain = 0
KME1 181529Z 20017KT 14/07 A2993 RMK A01 T01390073  RH  064%=      5-min Rain = 0
KME1 181530Z 20017G22KT 14/07 A2993 RMK A01 T01380071  RH  064%=      5-min Rain = 0
KME1 181531Z 20015KT 14/07 A2993 RMK A01 T01380071  RH  064%=      5-min Rain = 0
KME1 181532Z 20014KT 14/07 A2993 RMK A01 T01380072  RH  064%=      5-min Rain = 0
KME1 181533Z 20012G17KT 14/07 A2993 RMK A01 T01380072  RH  064%=      5-min Rain = 0
KME1 181534Z 20014G21KT 14/07 A2993 RMK A01 T01390074  RH  065%=      5-min Rain = 0
KME1 181535Z 20016KT 14/07 A2993 RMK A01 T01400072  RH  064%=      5-min Rain = 0
KME1 181536Z 20017G22KT 14/07 A2993 RMK A01 T01390071  RH  064%=      5-min Rain = 0
KME1 181537Z 21018KT 14/07 A2993 RMK A01 T01370071  RH  064%=      5-min Rain = 0
KME1 181538Z 20013G18KT 14/07 A2993 RMK A01 T01360071  RH  065%=      5-min Rain = 0
KME1 181539Z 20015G20KT 14/07 A2993 RMK A01 T01360072  RH  065%=      5-min Rain = 0
KME1 181540Z 20015KT 14/07 A2993 RMK A01 T01350071  RH  065%=      5-min Rain = 0
KME1 181541Z 19014KT 14/07 A2993 RMK A01 T01350071  RH  066%=      5-min Rain = 0
KME1 181542Z 19017KT 13/07 A2993 RMK A01 T01340071  RH  066%=      5-min Rain = 0
KME1 181543Z 19016G22KT 13/07 A2993 RMK A01 T01330071  RH  066%=      5-min Rain = 0
KME1 181544Z 20014G19KT 13/07 A2993 RMK A01 T01330072  RH  066%=      5-min Rain = 0
KME1 181545Z 20013G18KT 13/07 A2993 RMK A01 T01330073  RH  067%=      5-min Rain = 0
KME1 181546Z 19014G19KT 13/07 A2993 RMK A01 T01330072  RH  067%=      5-min Rain = 0
KME1 181547Z 20013KT 13/07 A2993 RMK A01 T01330073  RH  067%=      5-min Rain = 0
KME1 181548Z 19014KT 13/07 A2993 RMK A01 T01330073  RH  067%=      5-min Rain = 0
KME1 181549Z 20015KT 13/07 A2993 RMK A01 T01330073  RH  067%=      5-min Rain = 0
KME1 181550Z 20015KT 13/07 A2993 RMK A01 T01330073  RH  067%=      5-min Rain = 0
KME1 181551Z 19013KT 13/07 A2993 RMK A01 T01330074  RH  067%=      5-min Rain = 0
KME1 181552Z 20013G18KT 13/07 A2993 RMK A01 T01320073  RH  068%=      5-min Rain = 0
KME1 181553Z 20010KT 13/07 A2993 RMK A01 T01320074  RH  068%=      5-min Rain = 0
KME1 181554Z 19013G18KT 13/07 A2993 RMK A01 T01320074  RH  068%=      5-min Rain = 0
KME1 181555Z 19014KT 13/07 A2993 RMK A01 T01320074  RH  068%=      5-min Rain = 0
KME1 181556Z 19012KT 13/07 A2993 RMK A01 T01320074  RH  068%=      5-min Rain = 0
KME1 181557Z 19013KT 13/07 A2993 RMK A01 T01300073  RH  068%=      5-min Rain = 0
KME1 181558Z 18014KT 13/07 A2993 RMK A01 T01300074  RH  068%=      5-min Rain = 0
KME1 181559Z 19015G22KT 13/07 A2993 RMK A01 T01300073  RH  069%=      5-min Rain = 0
KME1 181600Z 19013G18KT 13/07 A2993 RMK A01 T01290073  RH  069%=      5-min Rain = 0
KME1 181601Z 20012KT 13/07 A2993 RMK A01 T01290074  RH  069%=      5-min Rain = 0
KME1 181602Z 19015KT 13/07 A2993 RMK A01 T01290074  RH  069%=      5-min Rain = 0
KME1 181603Z 19017KT 13/07 A2993 RMK A01 T01290074  RH  069%=      5-min Rain = 0
KME1 181604Z 19013KT 13/08 A2993 RMK A01 T01310075  RH  069%=      5-min Rain = 0
KME1 181605Z 19012KT 13/08 A2993 RMK A01 T01330076  RH  068%=      5-min Rain = 0
KME1 181606Z 19014KT 14/08 A2993 RMK A01 T01350076  RH  068%=      5-min Rain = 0
KME1 181607Z 19013G19KT 14/08 A2993 RMK A01 T01370077  RH  067%=      5-min Rain = 0
KME1 181608Z 19014KT 14/08 A2993 RMK A01 T01380077  RH  066%=      5-min Rain = 0
KME1 181609Z 19013G18KT 14/08 A2993 RMK A01 T01390078  RH  067%=      5-min Rain = 0
KME1 181610Z 19014KT 14/08 A2993 RMK A01 T01400078  RH  066%=      5-min Rain = 0
KME1 181611Z 19013KT 14/08 A2993 RMK A01 T01400078  RH  066%=      5-min Rain = 0
KME1 181612Z 19013G19KT 14/08 A2993 RMK A01 T01400078  RH  066%=      5-min Rain = 0
KME1 181613Z 19015KT 14/08 A2992 RMK A01 T01410078  RH  066%=      5-min Rain = 0
KME1 181614Z 19018KT 14/08 A2992 RMK A01 T01420078  RH  065%=      5-min Rain = 0
KME1 181615Z 19014KT 14/08 A2992 RMK A01 T01430078  RH  065%=      5-min Rain = 0
KME1 181616Z 20012G17KT 14/08 A2992 RMK A01 T01440079  RH  065%=      5-min Rain = 0
KME1 181617Z 19015KT 15/08 A2992 RMK A01 T01460081  RH  065%=      5-min Rain = 0
KME1 181618Z 20014KT 15/08 A2992 RMK A01 T01470080  RH  064%=      5-min Rain = 0
KME1 181619Z 19016KT 15/08 A2992 RMK A01 T01480080  RH  064%=      5-min Rain = 0
KME1 181620Z 19015KT 15/08 A2992 RMK A01 T01480079  RH  063%=      5-min Rain = 0
KME1 181621Z 19018G24KT 15/08 A2992 RMK A01 T01490079  RH  063%=      5-min Rain = 0
KME1 181622Z 20014KT 15/08 A2992 RMK A01 T01490079  RH  063%=      5-min Rain = 0
KME1 181623Z 20015KT 15/08 A2992 RMK A01 T01500080  RH  063%=      5-min Rain = 0
KME1 181624Z 20014G19KT 15/08 A2992 RMK A01 T01510081  RH  063%=      5-min Rain = 0
KME1 181625Z 20017KT 15/08 A2992 RMK A01 T01520081  RH  063%=      5-min Rain = 0
KME1 181626Z 19013KT 15/08 A2992 RMK A01 T01530082  RH  063%=      5-min Rain = 0
KME1 181627Z 19016KT 16/08 A2992 RMK A01 T01550083  RH  063%=      5-min Rain = 0
KME1 181628Z 19017G23KT 16/08 A2992 RMK A01 T01550081  RH  061%=      5-min Rain = 0
KME1 181629Z 20018KT 16/08 A2992 RMK A01 T01550081  RH  061%=      5-min Rain = 0
KME1 181630Z 20013KT 16/08 A2992 RMK A01 T01550081  RH  061%=      5-min Rain = 0
KME1 181631Z 19012G17KT 16/08 A2992 RMK A01 T01570084  RH  062%=      5-min Rain = 0
KME1 181632Z 20014KT 16/09 A2992 RMK A01 T01580085  RH  062%=      5-min Rain = 0
KME1 181633Z 19016G22KT 16/08 A2993 RMK A01 T01590084  RH  061%=      5-min Rain = 0
KME1 181634Z 20016KT 16/08 A2993 RMK A01 T01600083  RH  060%=      5-min Rain = 0
KME1 181635Z 20016KT 16/08 A2993 RMK A01 T01590083  RH  061%=      5-min Rain = 0
KME1 181636Z 20016G21KT 16/08 A2993 RMK A01 T01590083  RH  061%=      5-min Rain = 0
KME1 181637Z 19013KT 16/08 A2993 RMK A01 T01590083  RH  061%=      5-min Rain = 0
KME1 181638Z 20013KT 16/08 A2993 RMK A01 T01600084  RH  061%=      5-min Rain = 0
KME1 181639Z 20016G21KT 16/08 A2993 RMK A01 T01620084  RH  060%=      5-min Rain = 0
KME1 181640Z 19015KT 16/08 A2993 RMK A01 T01620084  RH  060%=      5-min Rain = 0
KME1 181641Z 20014KT 16/08 A2993 RMK A01 T01620084  RH  060%=      5-min Rain = 0
KME1 181642Z 20013G19KT 16/09 A2993 RMK A01 T01620085  RH  060%=      5-min Rain = 0
KME1 181643Z 19013KT 16/09 A2993 RMK A01 T01620085  RH  060%=      5-min Rain = 0
KME1 181644Z 20010KT 16/09 A2993 RMK A01 T01620086  RH  060%=      5-min Rain = 0
KME1 181645Z 20015KT 16/09 A2993 RMK A01 T01630086  RH  060%=      5-min Rain = 0
KME1 181646Z 21013KT 16/08 A2993 RMK A01 T01640084  RH  059%=      5-min Rain = 0
KME1 181647Z 20011KT 17/09 A2993 RMK A01 T01660087  RH  060%=      5-min Rain = 0
KME1 181648Z 21009KT 17/09 A2993 RMK A01 T01680089  RH  059%=      5-min Rain = 0
KME1 181649Z 20009KT 17/09 A2993 RMK A01 T01710090  RH  059%=      5-min Rain = 0
KME1 181650Z 20011KT 17/09 A2993 RMK A01 T01720089  RH  058%=      5-min Rain = 0
KME1 181651Z 20011KT 17/09 A2993 RMK A01 T01740090  RH  058%=      5-min Rain = 0
KME1 181652Z 20012KT 18/09 A2993 RMK A01 T01760090  RH  057%=      5-min Rain = 0
KME1 181653Z 20018KT 18/09 A2993 RMK A01 T01760088  RH  056%=      5-min Rain = 0
KME1 181654Z 20015KT 18/09 A2993 RMK A01 T01750086  RH  056%=      5-min Rain = 0
KME1 181655Z 21017G22KT 17/09 A2993 RMK A01 T01740086  RH  056%=      5-min Rain = 0
KME1 181656Z 21015KT 17/09 A2993 RMK A01 T01740085  RH  056%=      5-min Rain = 0
KME1 181657Z 21015G22KT 17/09 A2993 RMK A01 T01740087  RH  057%=      5-min Rain = 0
KME1 181658Z 20015KT 18/09 A2993 RMK A01 T01750086  RH  056%=      5-min Rain = 0
KME1 181659Z 20015KT 18/09 A2993 RMK A01 T01750086  RH  056%=      5-min Rain = 0
KME1 181700Z 21013KT 18/09 A2993 RMK A01 T01760088  RH  056%=      5-min Rain = 0
KME1 181701Z 20014KT 18/09 A2993 RMK A01 T01780088  RH  056%=      5-min Rain = 0
KME1 181702Z 20014KT 18/09 A2993 RMK A01 T01780087  RH  055%=      5-min Rain = 0
KME1 181703Z 21013G19KT 18/09 A2993 RMK A01 T01790088  RH  055%=      5-min Rain = 0
KME1 181704Z 21013KT 18/09 A2993 RMK A01 T01800089  RH  055%=      5-min Rain = 0
KME1 181705Z 21014KT 18/09 A2993 RMK A01 T01820088  RH  054%=      5-min Rain = 0
KME1 181706Z 21015KT 18/09 A2993 RMK A01 T01820087  RH  054%=      5-min Rain = 0
KME1 181707Z 21014KT 18/09 A2993 RMK A01 T01820088  RH  054%=      5-min Rain = 0
KME1 181708Z 21016KT 18/09 A2993 RMK A01 T01830088  RH  054%=      5-min Rain = 0
KME1 181709Z 21012KT 18/09 A2993 RMK A01 T01830088  RH  054%=      5-min Rain = 0
KME1 181710Z 21014KT 18/09 A2993 RMK A01 T01840089  RH  054%=      5-min Rain = 0
KME1 181711Z 21012KT 19/09 A2993 RMK A01 T01870091  RH  054%=      5-min Rain = 0
KME1 181712Z 21012KT 19/09 A2993 RMK A01 T01880090  RH  053%=      5-min Rain = 0
KME1 181713Z 21016KT 19/09 A2993 RMK A01 T01880089  RH  052%=      5-min Rain = 0
KME1 181714Z 21015KT 19/09 A2993 RMK A01 T01880088  RH  052%=      5-min Rain = 0
KME1 181715Z 21014KT 19/09 A2993 RMK A01 T01880088  RH  052%=      5-min Rain = 0
KME1 181716Z 21014KT 19/09 A2993 RMK A01 T01880088  RH  052%=      5-min Rain = 0
KME1 181717Z 21012KT 19/09 A2992 RMK A01 T01880088  RH  052%=      5-min Rain = 0
KME1 181718Z 21010KT 19/09 A2992 RMK A01 T01890091  RH  053%=      5-min Rain = 0
KME1 181719Z 20011KT 19/09 A2992 RMK A01 T01920093  RH  053%=      5-min Rain = 0
KME1 181720Z 20014G19KT 19/09 A2992 RMK A01 T01930092  RH  052%=      5-min Rain = 0
KME1 181721Z 20012KT 19/09 A2992 RMK A01 T01930091  RH  052%=      5-min Rain = 0
KME1 181722Z 20009KT 19/09 A2992 RMK A01 T01920092  RH  052%=      5-min Rain = 0
KME1 181723Z 20010G16KT 19/09 A2992 RMK A01 T01930091  RH  052%=      5-min Rain = 0
KME1 181724Z 21012KT 19/09 A2992 RMK A01 T01940092  RH  052%=      5-min Rain = 0
KME1 181725Z 21013KT 19/09 A2992 RMK A01 T01940091  RH  051%=      5-min Rain = 0
KME1 181726Z 21011G17KT 19/09 A2992 RMK A01 T01940092  RH  051%=      5-min Rain = 0
KME1 181727Z 21013KT 20/09 A2992 RMK A01 T01950091  RH  051%=      5-min Rain = 0
KME1 181728Z 22012KT 20/09 A2992 RMK A01 T01970090  RH  050%=      5-min Rain = 0
KME1 181729Z 22011G17KT 20/09 A2992 RMK A01 T01980091  RH  050%=      5-min Rain = 0
KME1 181730Z 22017G22KT 20/09 A2991 RMK A01 T02000086  RH  048%=      5-min Rain = 0
KME1 181731Z 23015KT 20/08 A2991 RMK A01 T01990084  RH  047%=      5-min Rain = 0
KME1 181732Z 20015KT 20/09 A2991 RMK A01 T02000085  RH  048%=      5-min Rain = 0
KME1 181733Z 22017KT 20/08 A2991 RMK A01 T02000084  RH  047%=      5-min Rain = 0
KME1 181734Z 21016KT 20/09 A2991 RMK A01 T02000085  RH  047%=      5-min Rain = 0
KME1 181735Z 22013KT 20/09 A2991 RMK A01 T02000085  RH  047%=      5-min Rain = 0
KME1 181736Z 22014KT 20/09 A2991 RMK A01 T02000085  RH  047%=      5-min Rain = 0
KME1 181737Z 21013KT 20/08 A2991 RMK A01 T02010082  RH  046%=      5-min Rain = 0
KME1 181738Z 21013G18KT 20/08 A2991 RMK A01 T02020084  RH  047%=      5-min Rain = 0
KME1 181739Z 20016KT 20/09 A2991 RMK A01 T02020086  RH  047%=      5-min Rain = 0
KME1 181740Z 21015KT 20/09 A2991 RMK A01 T02020085  RH  047%=      5-min Rain = 0
KME1 181741Z 21013KT 20/09 A2991 RMK A01 T02020085  RH  047%=      5-min Rain = 0
KME1 181742Z 21013KT 20/09 A2991 RMK A01 T02020086  RH  047%=      5-min Rain = 0
KME1 181743Z 21012KT 20/09 A2991 RMK A01 T02030086  RH  047%=      5-min Rain = 0
KME1 181744Z 20012KT 20/09 A2991 RMK A01 T02040089  RH  047%=      5-min Rain = 0
KME1 181745Z 21013KT 21/09 A2991 RMK A01 T02050089  RH  047%=      5-min Rain = 0
KME1 181746Z 20012KT 20/09 A299 RMK A01 T02040090  RH  048%=      5-min Rain = 0
KME1 181747Z 20014KT 20/09 A299 RMK A01 T02040090  RH  048%=      5-min Rain = 0
KME1 181748Z 21012KT 20/09 A299 RMK A01 T02040091  RH  048%=      5-min Rain = 0
KME1 181749Z 20013KT 21/09 A299 RMK A01 T02050091  RH  048%=      5-min Rain = 0
KME1 181750Z 20012KT 21/09 A299 RMK A01 T02060091  RH  048%=      5-min Rain = 0
KME1 181751Z 21014KT 21/09 A299 RMK A01 T02060091  RH  048%=      5-min Rain = 0
KME1 181752Z 21016KT 21/09 A299 RMK A01 T02060089  RH  047%=      5-min Rain = 0
KME1 181753Z 21014KT 21/09 A299 RMK A01 T02060088  RH  047%=      5-min Rain = 0
KME1 181754Z 20013KT 21/09 A299 RMK A01 T02060088  RH  047%=      5-min Rain = 0
KME1 181755Z 20014KT 21/09 A299 RMK A01 T02060088  RH  047%=      5-min Rain = 0
KME1 181756Z 20012KT 21/09 A2989 RMK A01 T02070090  RH  047%=      5-min Rain = 0
KME1 181757Z 20011KT 21/09 A2989 RMK A01 T02090090  RH  046%=      5-min Rain = 0
KME1 181758Z 21014KT 21/09 A2989 RMK A01 T02100088  RH  046%=      5-min Rain = 0
KME1 181759Z 21015KT 21/09 A2989 RMK A01 T02110088  RH  045%=      5-min Rain = 0
KME1 181800Z 22017KT 21/08 A2989 RMK A01 T02120084  RH  044%=      5-min Rain = 0
KME1 181801Z 23014KT 21/08 A299 RMK A01 T02120082  RH  043%=      5-min Rain = 0
KME1 181802Z 22013KT 21/08 A299 RMK A01 T02130083  RH  043%=      5-min Rain = 0
KME1 181803Z 22013KT 21/09 A299 RMK A01 T02130085  RH  044%=      5-min Rain = 0
KME1 181804Z 21012KT 22/09 A2989 RMK A01 T02150086  RH  044%=      5-min Rain = 0
KME1 181805Z 22012KT 22/09 A2989 RMK A01 T02160086  RH  043%=      5-min Rain = 0
KME1 181806Z 22011KT 22/09 A2989 RMK A01 T02170086  RH  043%=      5-min Rain = 0
KME1 181807Z 22015KT 22/09 A2989 RMK A01 T02180086  RH  043%=      5-min Rain = 0
KME1 181808Z 23015KT 22/08 A2989 RMK A01 T02190082  RH  041%=      5-min Rain = 0
KME1 181809Z 23014KT 22/08 A2989 RMK A01 T02180082  RH  042%=      5-min Rain = 0
KME1 181810Z 21013KT 22/08 A2989 RMK A01 T02180084  RH  042%=      5-min Rain = 0
KME1 181811Z 22014G19KT 22/08 A2989 RMK A01 T02180084  RH  042%=      5-min Rain = 0
KME1 181812Z 21016KT 22/08 A2988 RMK A01 T02180083  RH  042%=      5-min Rain = 0
KME1 181813Z 21013KT 22/08 A2988 RMK A01 T02180084  RH  042%=      5-min Rain = 0
KME1 181814Z 20012KT 22/08 A2988 RMK A01 T02190084  RH  042%=      5-min Rain = 0
KME1 181815Z 22011KT 22/08 A2988 RMK A01 T02200081  RH  041%=      5-min Rain = 0
KME1 181816Z 23015KT 22/08 A2988 RMK A01 T02220080  RH  040%=      5-min Rain = 0
KME1 181817Z 23014G19KT 22/08 A2988 RMK A01 T02240075  RH  038%=      5-min Rain = 0
KME1 181818Z 23015KT 23/08 A2988 RMK A01 T02250076  RH  038%=      5-min Rain = 0
KME1 181819Z 24012KT 23/07 A2987 RMK A01 T02260070  RH  037%=      5-min Rain = 0
KME1 181820Z 23014KT 23/07 A2987 RMK A01 T02260073  RH  037%=      5-min Rain = 0
KME1 181821Z 23014G19KT 23/07 A2987 RMK A01 T02280073  RH  037%=      5-min Rain = 0
KME1 181822Z 24014G19KT 23/07 A2987 RMK A01 T02290071  RH  036%=      5-min Rain = 0
KME1 181823Z 23018KT 23/07 A2987 RMK A01 T02300071  RH  036%=      5-min Rain = 0
KME1 181824Z 22017KT 23/07 A2987 RMK A01 T02290067  RH  035%=      5-min Rain = 0
KME1 181825Z 22017KT 23/07 A2986 RMK A01 T02280066  RH  035%=      5-min Rain = 0
KME1 181826Z 22017KT 23/06 A2986 RMK A01 T02280064  RH  035%=      5-min Rain = 0
KME1 181827Z 22013G18KT 23/07 A2986 RMK A01 T02270067  RH  035%=      5-min Rain = 0
KME1 181828Z 21016KT 23/07 A2986 RMK A01 T02280069  RH  036%=      5-min Rain = 0
KME1 181829Z 22014KT 23/07 A2986 RMK A01 T02280069  RH  036%=      5-min Rain = 0
KME1 181830Z 22013KT 23/07 A2986 RMK A01 T02280070  RH  036%=      5-min Rain = 0
KME1 181831Z 22012KT 23/07 A2986 RMK A01 T02290071  RH  036%=      5-min Rain = 0
KME1 181832Z 22013G18KT 23/07 A2986 RMK A01 T02290070  RH  036%=      5-min Rain = 0
KME1 181833Z 22012KT 23/07 A2986 RMK A01 T02300072  RH  036%=      5-min Rain = 0
KME1 181834Z 21012KT 23/08 A2985 RMK A01 T02310075  RH  037%=      5-min Rain = 0
KME1 181835Z 22012KT 23/08 A2985 RMK A01 T02320075  RH  037%=      5-min Rain = 0
KME1 181836Z 22012KT 23/08 A2985 RMK A01 T02330076  RH  036%=      5-min Rain = 0
KME1 181837Z 22017KT 23/07 A2985 RMK A01 T02330072  RH  035%=      5-min Rain = 0
KME1 181838Z 22012KT 23/07 A2985 RMK A01 T02320071  RH  035%=      5-min Rain = 0
KME1 181839Z 22012KT 23/07 A2985 RMK A01 T02330074  RH  036%=      5-min Rain = 0
KME1 181840Z 22012KT 24/07 A2984 RMK A01 T02350070  RH  035%=      5-min Rain = 0
KME1 181841Z 22013KT 24/07 A2984 RMK A01 T02360067  RH  034%=      5-min Rain = 0
KME1 181842Z 22015KT 24/07 A2984 RMK A01 T02360069  RH  034%=      5-min Rain = 0
KME1 181843Z 22015KT 24/07 A2984 RMK A01 T02360067  RH  034%=      5-min Rain = 0
KME1 181844Z 21016KT 24/06 A2984 RMK A01 T02350062  RH  033%=      5-min Rain = 0
KME1 181845Z 24014KT 23/06 A2984 RMK A01 T02340062  RH  033%=      5-min Rain = 0
KME1 181846Z 24011G16KT 24/06 A2984 RMK A01 T02350062  RH  033%=      5-min Rain = 0
KME1 181847Z 24013G22KT 24/06 A2984 RMK A01 T02370063  RH  033%=      5-min Rain = 0
KME1 181848Z 23017G22KT 24/06 A2984 RMK A01 T02380059  RH  032%=      5-min Rain = 0
KME1 181849Z 23019KT 24/06 A2984 RMK A01 T02370056  RH  031%=      5-min Rain = 0
KME1 181850Z 23017KT 24/06 A2984 RMK A01 T02360058  RH  032%=      5-min Rain = 0
KME1 181851Z 23014KT 24/06 A2984 RMK A01 T02350062  RH  033%=      5-min Rain = 0
KME1 181852Z 22012KT 24/07 A2984 RMK A01 T02370067  RH  033%=      5-min Rain = 0
KME1 181853Z 22014KT 24/06 A2984 RMK A01 T02390059  RH  031%=      5-min Rain = 0
KME1 181854Z 23011KT 24/06 A2984 RMK A01 T02390063  RH  032%=      5-min Rain = 0
KME1 181855Z 23012KT 24/06 A2983 RMK A01 T02400062  RH  032%=      5-min Rain = 0
KME1 181856Z 23012G17KT 24/07 A2983 RMK A01 T02410065  RH  032%=      5-min Rain = 0
KME1 181857Z 22015KT 24/07 A2983 RMK A01 T02430068  RH  033%=      5-min Rain = 0
KME1 181858Z 20014G19KT 24/07 A2983 RMK A01 T02410070  RH  033%=      5-min Rain = 0
KME1 181859Z 21011KT 24/07 A2983 RMK A01 T02390070  RH  034%=      5-min Rain = 0
KME1 181900Z 21011KT 24/08 A2983 RMK A01 T02380075  RH  035%=      5-min Rain = 0
KME1 181901Z 22013KT 24/07 A2983 RMK A01 T02390069  RH  034%=      5-min Rain = 0
KME1 181902Z 22015KT 24/07 A2983 RMK A01 T02390070  RH  034%=      5-min Rain = 0
KME1 181903Z 22016KT 24/07 A2983 RMK A01 T02390065  RH  033%=      5-min Rain = 0
KME1 181904Z 20016KT 24/06 A2982 RMK A01 T02390064  RH  032%=      5-min Rain = 0
KME1 181905Z 22013KT 24/06 A2983 RMK A01 T02390064  RH  032%=      5-min Rain = 0
KME1 181906Z 24011KT 24/07 A2983 RMK A01 T02410065  RH  032%=      5-min Rain = 0
KME1 181907Z 22010G17KT 24/06 A2983 RMK A01 T02430064  RH  032%=      5-min Rain = 0
KME1 181908Z 22017G22KT 24/06 A2982 RMK A01 T02430062  RH  031%=      5-min Rain = 0
KME1 181909Z 22014KT 24/06 A2982 RMK A01 T02410059  RH  031%=      5-min Rain = 0
KME1 181910Z 22016KT 24/06 A2982 RMK A01 T02400060  RH  031%=      5-min Rain = 0
KME1 181911Z 23016KT 24/06 A2982 RMK A01 T02400060  RH  031%=      5-min Rain = 0
KME1 181912Z 23013KT 24/06 A2982 RMK A01 T02400061  RH  032%=      5-min Rain = 0
KME1 181913Z 23014G19KT 24/06 A2982 RMK A01 T02400062  RH  032%=      5-min Rain = 0
KME1 181914Z 23016KT 24/06 A2982 RMK A01 T02410060  RH  031%=      5-min Rain = 0
KME1 181915Z 22016KT 24/06 A2982 RMK A01 T02400060  RH  031%=      5-min Rain = 0
KME1 181916Z 23013KT 24/06 A2982 RMK A01 T02390062  RH  032%=      5-min Rain = 0
KME1 181917Z 23016KT 24/06 A2982 RMK A01 T02400060  RH  031%=      5-min Rain = 0
KME1 181918Z 22013KT 24/06 A2981 RMK A01 T02390059  RH  031%=      5-min Rain = 0
KME1 181919Z 23013G18KT 24/06 A2981 RMK A01 T02390062  RH  032%=      5-min Rain = 0
KME1 181920Z 23018KT 24/06 A2981 RMK A01 T02400062  RH  032%=      5-min Rain = 0
KME1 181921Z 23015G20KT 24/06 A2981 RMK A01 T02400058  RH  031%=      5-min Rain = 0
KME1 181922Z 23017G22KT 24/06 A2981 RMK A01 T02400057  RH  031%=      5-min Rain = 0
KME1 181923Z 23015KT 24/05 A2981 RMK A01 T02390053  RH  030%=      5-min Rain = 0
KME1 181924Z 23016G21KT 24/06 A2981 RMK A01 T02380055  RH  031%=      5-min Rain = 0
KME1 181925Z 23017KT 24/06 A298 RMK A01 T02380056  RH  031%=      5-min Rain = 0
KME1 181926Z 23015G23KT 24/06 A298 RMK A01 T02400058  RH  031%=      5-min Rain = 0
KME1 181927Z 25013KT 24/05 A298 RMK A01 T02410053  RH  030%=      5-min Rain = 0
KME1 181928Z 22010KT 24/06 A298 RMK A01 T02400056  RH  031%=      5-min Rain = 0
KME1 181929Z 22012KT 24/06 A298 RMK A01 T02400059  RH  031%=      5-min Rain = 0
KME1 181930Z 23010KT 24/06 A298 RMK A01 T02390062  RH  032%=      5-min Rain = 0
KME1 181931Z 22015KT 24/06 A298 RMK A01 T02410061  RH  031%=      5-min Rain = 0
KME1 181932Z 23015KT 24/06 A298 RMK A01 T02420058  RH  030%=      5-min Rain = 0
KME1 181933Z 23014KT 24/06 A298 RMK A01 T02420057  RH  030%=      5-min Rain = 0
KME1 181934Z 23014KT 24/06 A298 RMK A01 T02430055  RH  030%=      5-min Rain = 0
KME1 181935Z 25012KT 24/06 A298 RMK A01 T02420055  RH  030%=      5-min Rain = 0
KME1 181936Z 25014KT 24/05 A298 RMK A01 T02420054  RH  030%=      5-min Rain = 0
KME1 181937Z 25017G22KT 24/05 A298 RMK A01 T02400052  RH  030%=      5-min Rain = 0
KME1 181938Z 23012KT 24/05 A298 RMK A01 T02380054  RH  030%=      5-min Rain = 0
KME1 181939Z 24014KT 24/05 A298 RMK A01 T02380051  RH  030%=      5-min Rain = 0
KME1 181940Z 24014KT 24/05 A2979 RMK A01 T02380047  RH  029%=      5-min Rain = 0
KME1 181941Z 23012KT 24/05 A2979 RMK A01 T02380052  RH  030%=      5-min Rain = 0
KME1 181942Z 23012KT 24/06 A2979 RMK A01 T02410057  RH  030%=      5-min Rain = 0
KME1 181943Z 24011KT 24/06 A2979 RMK A01 T02440058  RH  030%=      5-min Rain = 0
KME1 181944Z 23013KT 25/06 A2979 RMK A01 T02460057  RH  030%=      5-min Rain = 0
KME1 181945Z 25013G19KT 25/06 A2979 RMK A01 T02460056  RH  029%=      5-min Rain = 0
KME1 181946Z 23014KT 25/05 A2979 RMK A01 T02460054  RH  029%=      5-min Rain = 0
KME1 181947Z 23015KT 25/05 A2979 RMK A01 T02450053  RH  029%=      5-min Rain = 0
KME1 181948Z 23014KT 24/05 A2979 RMK A01 T02430054  RH  029%=      5-min Rain = 0
KME1 181949Z 23014KT 24/05 A2978 RMK A01 T02440054  RH  029%=      5-min Rain = 0
KME1 181950Z 23018G23KT 24/05 A2978 RMK A01 T02440054  RH  029%=      5-min Rain = 0
KME1 181951Z 24017KT 25/06 A2978 RMK A01 T02450055  RH  029%=      5-min Rain = 0
KME1 181952Z 23015G21KT 25/05 A2978 RMK A01 T02460054  RH  029%=      5-min Rain = 0
KME1 181953Z 23015KT 25/05 A2978 RMK A01 T02460054  RH  029%=      5-min Rain = 0
KME1 181954Z 23016KT 25/05 A2978 RMK A01 T02470053  RH  029%=      5-min Rain = 0
KME1 181955Z 24013KT 25/05 A2978 RMK A01 T02470054  RH  029%=      5-min Rain = 0
KME1 181956Z 25015KT 25/05 A2978 RMK A01 T02480050  RH  028%=      5-min Rain = 0
KME1 181957Z 25011KT 25/05 A2978 RMK A01 T02480048  RH  027%=      5-min Rain = 0
KME1 181958Z 26010KT 25/05 A2978 RMK A01 T02490051  RH  028%=      5-min Rain = 0
KME1 181959Z 25013KT 25/05 A2978 RMK A01 T02500052  RH  028%=      5-min Rain = 0
KME1 182000Z 24010KT 25/05 A2978 RMK A01 T02500053  RH  028%=      5-min Rain = 0
KME1 182001Z 24012KT 25/06 A2978 RMK A01 T02510055  RH  028%=      5-min Rain = 0
KME1 182002Z 26011KT 25/06 A2977 RMK A01 T02530059  RH  029%=      5-min Rain = 0
KME1 182003Z 26014KT 25/05 A2977 RMK A01 T02540054  RH  028%=      5-min Rain = 0
KME1 182004Z 25012KT 25/05 A2977 RMK A01 T02530053  RH  028%=      5-min Rain = 0
KME1 182005Z 26011KT 25/05 A2977 RMK A01 T02530053  RH  028%=      5-min Rain = 0
KME1 182006Z 26015KT 25/05 A2977 RMK A01 T02540047  RH  026%=      5-min Rain = 0
KME1 182007Z 26012G18KT 25/04 A2977 RMK A01 T02540038  RH  025%=      5-min Rain = 0
KME1 182008Z 26014G21KT 26/04 A2977 RMK A01 T02550039  RH  025%=      5-min Rain = 0
KME1 182009Z 26022KT 26/03 A2977 RMK A01 T02550031  RH  023%=      5-min Rain = 0
KME1 182010Z 27020KT 25/03 A2977 RMK A01 T02530027  RH  023%=      5-min Rain = 0
KME1 182011Z 26017G24KT 25/03 A2977 RMK A01 T02510026  RH  023%=      5-min Rain = 0
KME1 182012Z 27015KT 25/03 A2977 RMK A01 T02510027  RH  023%=      5-min Rain = 0
KME1 182013Z 27020G25KT 25/03 A2977 RMK A01 T02510026  RH  023%=      5-min Rain = 0
KME1 182014Z 26020KT 25/03 A2977 RMK A01 T02510025  RH  023%=      5-min Rain = 0
KME1 182015Z 27015G21KT 25/03 A2977 RMK A01 T02500026  RH  023%=      5-min Rain = 0
KME1 182016Z 26017KT 25/03 A2976 RMK A01 T02510026  RH  023%=      5-min Rain = 0
KME1 182017Z 27015KT 25/03 A2976 RMK A01 T02510027  RH  023%=      5-min Rain = 0
KME1 182018Z 27019G27KT 25/03 A2976 RMK A01 T02530027  RH  023%=      5-min Rain = 0
KME1 182019Z 26013KT 25/03 A2976 RMK A01 T02530028  RH  023%=      5-min Rain = 0
KME1 182020Z 26014G20KT 25/03 A2976 RMK A01 T02540029  RH  023%=      5-min Rain = 0
KME1 182021Z 26016G22KT 26/03 A2976 RMK A01 T02560027  RH  023%=      5-min Rain = 0
KME1 182022Z 26018KT 26/03 A2976 RMK A01 T02550027  RH  023%=      5-min Rain = 0
KME1 182023Z 25017KT 25/03 A2976 RMK A01 T02540025  RH  023%=      5-min Rain = 0
KME1 182024Z 25013G18KT 25/03 A2976 RMK A01 T02540027  RH  023%=      5-min Rain = 0
KME1 182025Z 25020G26KT 26/03 A2976 RMK A01 T02550027  RH  023%=      5-min Rain = 0
KME1 182026Z 25016KT 26/03 A2975 RMK A01 T02550025  RH  023%=      5-min Rain = 0
KME1 182027Z 25019KT 26/03 A2975 RMK A01 T02550025  RH  022%=      5-min Rain = 0
KME1 182028Z 24017KT 26/02 A2975 RMK A01 T02550024  RH  022%=      5-min Rain = 0
KME1 182029Z 24015G22KT 26/02 A2975 RMK A01 T02550024  RH  022%=      5-min Rain = 0
KME1 182030Z 25019G26KT 26/03 A2975 RMK A01 T02550026  RH  023%=      5-min Rain = 0
KME1 182031Z 25019KT 26/02 A2975 RMK A01 T02560022  RH  022%=      5-min Rain = 0
KME1 182032Z 25023G29KT 26/02 A2975 RMK A01 T02560021  RH  022%=      5-min Rain = 0
KME1 182033Z 27019G25KT 25/02 A2975 RMK A01 T02540018  RH  021%=      5-min Rain = 0
KME1 182034Z 26016KT 25/02 A2975 RMK A01 T02530023  RH  022%=      5-min Rain = 0
KME1 182035Z 26021G31KT 25/02 A2975 RMK A01 T02540022  RH  022%=      5-min Rain = 0
KME1 182036Z 26019G24KT 25/02 A2975 RMK A01 T02540019  RH  022%=      5-min Rain = 0
KME1 182037Z 26013G18KT 25/02 A2975 RMK A01 T02530023  RH  022%=      5-min Rain = 0
KME1 182038Z 27015G24KT 26/03 A2975 RMK A01 T02550028  RH  023%=      5-min Rain = 0
KME1 182039Z 27019G25KT 26/02 A2975 RMK A01 T02550021  RH  022%=      5-min Rain = 0
KME1 182040Z 26014KT 25/02 A2975 RMK A01 T02530022  RH  022%=      5-min Rain = 0
KME1 182041Z 27020G25KT 25/02 A2975 RMK A01 T02530023  RH  022%=      5-min Rain = 0
KME1 182042Z 27021G27KT 25/02 A2975 RMK A01 T02530020  RH  022%=      5-min Rain = 0
KME1 182043Z 27021KT 25/02 A2975 RMK A01 T02520020  RH  022%=      5-min Rain = 0
KME1 182044Z 27022G28KT 25/02 A2975 RMK A01 T02510020  RH  022%=      5-min Rain = 0
KME1 182045Z 28021KT 25/02 A2975 RMK A01 T02510021  RH  022%=      5-min Rain = 0
KME1 182046Z 27019KT 25/02 A2975 RMK A01 T02500022  RH  023%=      5-min Rain = 0
KME1 182047Z 27015G20KT 25/02 A2975 RMK A01 T02500022  RH  023%=      5-min Rain = 0
KME1 182048Z 26012G17KT 25/03 A2975 RMK A01 T02500025  RH  023%=      5-min Rain = 0
KME1 182049Z 25013KT 25/03 A2975 RMK A01 T02510027  RH  023%=      5-min Rain = 0
KME1 182050Z 26016G22KT 25/03 A2975 RMK A01 T02520026  RH  023%=      5-min Rain = 0
KME1 182051Z 26015G20KT 25/03 A2975 RMK A01 T02500025  RH  023%=      5-min Rain = 0
KME1 182052Z 25018KT 25/02 A2975 RMK A01 T02480021  RH  023%=      5-min Rain = 0
KME1 182053Z 25015G20KT 25/02 A2975 RMK A01 T02460021  RH  023%=      5-min Rain = 0
KME1 182054Z 26016KT 24/02 A2974 RMK A01 T02440021  RH  023%=      5-min Rain = 0
KME1 182055Z 25019G27KT 24/02 A2974 RMK A01 T02430020  RH  023%=      5-min Rain = 0
KME1 182056Z 25021G26KT 24/02 A2974 RMK A01 T02420017  RH  023%=      5-min Rain = 0
KME1 182057Z 25015G21KT 24/02 A2974 RMK A01 T02420016  RH  023%=      5-min Rain = 0
KME1 182058Z 26013KT 24/02 A2974 RMK A01 T02410019  RH  023%=      5-min Rain = 0
KME1 182059Z 26015G21KT 24/02 A2974 RMK A01 T02400019  RH  024%=      5-min Rain = 0
KME1 182100Z 27016G22KT 24/02 A2974 RMK A01 T02400017  RH  023%=      5-min Rain = 0
KME1 182101Z 27017KT 24/02 A2974 RMK A01 T02390018  RH  023%=      5-min Rain = 0
KME1 182102Z 27014G20KT 24/02 A2974 RMK A01 T02390018  RH  024%=      5-min Rain = 0
KME1 182103Z 27015KT 24/02 A2974 RMK A01 T02380017  RH  023%=      5-min Rain = 0
KME1 182104Z 27018G23KT 24/02 A2974 RMK A01 T02370016  RH  023%=      5-min Rain = 0
KME1 182105Z 27017G24KT 24/02 A2974 RMK A01 T02370016  RH  024%=      5-min Rain = 0
KME1 182106Z 27015G21KT 24/02 A2974 RMK A01 T02370018  RH  024%=      5-min Rain = 0
KME1 182107Z 27014KT 24/02 A2974 RMK A01 T02360018  RH  024%=      5-min Rain = 0
KME1 182108Z 27011KT 24/02 A2974 RMK A01 T02360020  RH  024%=      5-min Rain = 0
KME1 182109Z 28012KT 24/02 A2974 RMK A01 T02360022  RH  025%=      5-min Rain = 0
KME1 182110Z 27012KT 24/02 A2974 RMK A01 T02360023  RH  025%=      5-min Rain = 0
KME1 182111Z 27009KT 24/02 A2974 RMK A01 T02360024  RH  025%=      5-min Rain = 0
KME1 182112Z 27013KT 24/02 A2974 RMK A01 T02370023  RH  025%=      5-min Rain = 0
KME1 182113Z 27012G18KT 24/03 A2974 RMK A01 T02390025  RH  025%=      5-min Rain = 0
KME1 182114Z 27013KT 24/03 A2974 RMK A01 T02410026  RH  024%=      5-min Rain = 0
KME1 182115Z 27015G20KT 24/03 A2974 RMK A01 T02440025  RH  024%=      5-min Rain = 0
KME1 182116Z 26016KT 25/03 A2974 RMK A01 T02450025  RH  024%=      5-min Rain = 0
KME1 182117Z 27015G22KT 25/03 A2974 RMK A01 T02460027  RH  024%=      5-min Rain = 0
KME1 182118Z 28019KT 25/03 A2974 RMK A01 T02480025  RH  024%=      5-min Rain = 0
KME1 182119Z 27019G24KT 25/02 A2974 RMK A01 T02480022  RH  023%=      5-min Rain = 0
KME1 182120Z 28016G21KT 25/02 A2974 RMK A01 T02480023  RH  023%=      5-min Rain = 0
KME1 182121Z 29013KT 25/03 A2974 RMK A01 T02480027  RH  024%=      5-min Rain = 0
KME1 182122Z 28015G21KT 25/03 A2974 RMK A01 T02490026  RH  023%=      5-min Rain = 0
KME1 182123Z 27017G22KT 25/03 A2974 RMK A01 T02470026  RH  024%=      5-min Rain = 0
KME1 182124Z 27013KT 24/02 A2974 RMK A01 T02440023  RH  024%=      5-min Rain = 0
KME1 182125Z 28012G17KT 24/03 A2974 RMK A01 T02430026  RH  024%=      5-min Rain = 0
KME1 182126Z 28013KT 24/03 A2974 RMK A01 T02420026  RH  024%=      5-min Rain = 0
KME1 182127Z 28010KT 24/03 A2974 RMK A01 T02420028  RH  025%=      5-min Rain = 0
KME1 182128Z 27015G20KT 24/03 A2974 RMK A01 T02430029  RH  025%=      5-min Rain = 0
KME1 182129Z 28016KT 24/03 A2973 RMK A01 T02440028  RH  024%=      5-min Rain = 0
KME1 182130Z 27014KT 24/03 A2973 RMK A01 T02440028  RH  024%=      5-min Rain = 0
KME1 182131Z 27016KT 25/03 A2973 RMK A01 T02450028  RH  024%=      5-min Rain = 0
KME1 182132Z 27014G20KT 25/03 A2973 RMK A01 T02450028  RH  024%=      5-min Rain = 0
KME1 182133Z 27011KT 25/03 A2973 RMK A01 T02460032  RH  025%=      5-min Rain = 0
KME1 182134Z 26013G18KT 25/03 A2973 RMK A01 T02470031  RH  025%=      5-min Rain = 0
KME1 182135Z 26016KT 25/03 A2973 RMK A01 T02470028  RH  024%=      5-min Rain = 0
KME1 182136Z 26015KT 25/03 A2973 RMK A01 T02470028  RH  024%=      5-min Rain = 0
KME1 182137Z 27015KT 25/03 A2973 RMK A01 T02470027  RH  024%=      5-min Rain = 0
KME1 182138Z 26015KT 25/03 A2973 RMK A01 T02470025  RH  024%=      5-min Rain = 0
KME1 182139Z 26013KT 25/03 A2973 RMK A01 T02470027  RH  024%=      5-min Rain = 0
KME1 182140Z 27013G19KT 25/03 A2972 RMK A01 T02470027  RH  024%=      5-min Rain = 0
KME1 182141Z 26015G22KT 25/03 A2972 RMK A01 T02480025  RH  023%=      5-min Rain = 0
KME1 182142Z 25020G25KT 25/03 A2972 RMK A01 T02480025  RH  023%=      5-min Rain = 0
KME1 182143Z 25017KT 25/02 A2972 RMK A01 T02470023  RH  023%=      5-min Rain = 0
KME1 182144Z 25015KT 25/03 A2972 RMK A01 T02470025  RH  024%=      5-min Rain = 0
KME1 182145Z 26013KT 25/03 A2972 RMK A01 T02480026  RH  024%=      5-min Rain = 0
KME1 182146Z 26016G21KT 25/03 A2972 RMK A01 T02490026  RH  023%=      5-min Rain = 0
KME1 182147Z 26018G23KT 25/03 A2972 RMK A01 T02490026  RH  023%=      5-min Rain = 0
KME1 182148Z 26018G23KT 25/02 A2972 RMK A01 T02500024  RH  023%=      5-min Rain = 0
KME1 182149Z 26021G27KT 25/02 A2972 RMK A01 T02500024  RH  023%=      5-min Rain = 0
KME1 182150Z 26021G27KT 25/02 A2972 RMK A01 T02490023  RH  023%=      5-min Rain = 0
KME1 182151Z 26019G24KT 25/02 A2972 RMK A01 T02490023  RH  023%=      5-min Rain = 0
KME1 182152Z 26019KT 25/02 A2972 RMK A01 T02490023  RH  023%=      5-min Rain = 0
KME1 182153Z 26013G18KT 25/02 A2972 RMK A01 T02480024  RH  023%=      5-min Rain = 0
KME1 182154Z 25014G19KT 25/03 A2972 RMK A01 T02490027  RH  024%=      5-min Rain = 0
KME1 182155Z 26014G20KT 25/03 A2972 RMK A01 T02490027  RH  023%=      5-min Rain = 0
KME1 182156Z 25016KT 25/03 A2973 RMK A01 T02500028  RH  024%=      5-min Rain = 0
KME1 182157Z 27016G21KT 25/03 A2972 RMK A01 T02500028  RH  024%=      5-min Rain = 0
KME1 182158Z 26019G24KT 25/03 A2972 RMK A01 T02500027  RH  023%=      5-min Rain = 0
KME1 182159Z 25015G21KT 25/03 A2972 RMK A01 T02490027  RH  024%=      5-min Rain = 0
KME1 182200Z 26016G22KT 25/03 A2972 RMK A01 T02480027  RH  024%=      5-min Rain = 0
KME1 182201Z 26014KT 25/03 A2972 RMK A01 T02480029  RH  024%=      5-min Rain = 0
KME1 182202Z 26015G20KT 25/03 A2972 RMK A01 T02480028  RH  024%=      5-min Rain = 0
KME1 182203Z 27013G18KT 25/03 A2972 RMK A01 T02480028  RH  024%=      5-min Rain = 0
KME1 182204Z 27013G20KT 25/03 A2972 RMK A01 T02480028  RH  024%=      5-min Rain = 0
KME1 182205Z 26017KT 25/03 A2972 RMK A01 T02490027  RH  024%=      5-min Rain = 0
KME1 182206Z 27019G26KT 25/03 A2972 RMK A01 T02480025  RH  023%=      5-min Rain = 0
KME1 182207Z 27018G23KT 25/02 A2972 RMK A01 T02470023  RH  023%=      5-min Rain = 0
KME1 182208Z 28016G23KT 25/02 A2973 RMK A01 T02460023  RH  023%=      5-min Rain = 0
KME1 182209Z 28019G24KT 25/02 A2973 RMK A01 T02460022  RH  023%=      5-min Rain = 0
KME1 182210Z 27017G22KT 25/02 A2973 RMK A01 T02460023  RH  023%=      5-min Rain = 0
KME1 182211Z 28017KT 25/02 A2973 RMK A01 T02460022  RH  023%=      5-min Rain = 0
KME1 182212Z 28018KT 25/02 A2973 RMK A01 T02460022  RH  023%=      5-min Rain = 0
KME1 182213Z 27012KT 25/02 A2973 RMK A01 T02450024  RH  024%=      5-min Rain = 0
KME1 182214Z 28010KT 25/03 A2973 RMK A01 T02450027  RH  024%=      5-min Rain = 0
KME1 182215Z 28011KT 25/03 A2973 RMK A01 T02460028  RH  024%=      5-min Rain = 0
KME1 182216Z 28011G17KT 25/03 A2973 RMK A01 T02460028  RH  024%=      5-min Rain = 0
KME1 182217Z 28014G19KT 25/03 A2973 RMK A01 T02460025  RH  024%=      5-min Rain = 0
KME1 182218Z 28012G17KT 25/03 A2973 RMK A01 T02450026  RH  024%=      5-min Rain = 0
KME1 182219Z 28016KT 24/02 A2973 RMK A01 T02440024  RH  024%=      5-min Rain = 0
KME1 182220Z 28015KT 24/02 A2973 RMK A01 T02430024  RH  024%=      5-min Rain = 0
KME1 182221Z 27013KT 24/03 A2973 RMK A01 T02430025  RH  024%=      5-min Rain = 0
KME1 182222Z 28013KT 24/03 A2973 RMK A01 T02430026  RH  024%=      5-min Rain = 0
KME1 182223Z 29014KT 24/03 A2973 RMK A01 T02430026  RH  024%=      5-min Rain = 0
KME1 182224Z 28012KT 24/03 A2973 RMK A01 T02430025  RH  024%=      5-min Rain = 0
KME1 182225Z 29014G22KT 24/03 A2973 RMK A01 T02430027  RH  024%=      5-min Rain = 0
KME1 182226Z 29017KT 24/02 A2973 RMK A01 T02430024  RH  024%=      5-min Rain = 0
KME1 182227Z 28013KT 24/03 A2973 RMK A01 T02420026  RH  024%=      5-min Rain = 0
KME1 182228Z 28015G21KT 24/03 A2973 RMK A01 T02410026  RH  025%=      5-min Rain = 0
KME1 182229Z 27013KT 24/03 A2973 RMK A01 T02410025  RH  024%=      5-min Rain = 0
KME1 182230Z 28011G17KT 24/03 A2973 RMK A01 T02410027  RH  025%=      5-min Rain = 0
KME1 182231Z 28010KT 24/03 A2973 RMK A01 T02410028  RH  025%=      5-min Rain = 0
KME1 182232Z 28010KT 24/03 A2973 RMK A01 T02410029  RH  025%=      5-min Rain = 0
KME1 182233Z 28012KT 24/03 A2973 RMK A01 T02410028  RH  025%=      5-min Rain = 0
KME1 182234Z 28012G19KT 24/03 A2973 RMK A01 T02410027  RH  025%=      5-min Rain = 0
KME1 182235Z 28009G15KT 24/03 A2973 RMK A01 T02410028  RH  025%=      5-min Rain = 0
KME1 182236Z 28017G22KT 24/03 A2973 RMK A01 T02410027  RH  025%=      5-min Rain = 0
KME1 182237Z 29017KT 24/03 A2973 RMK A01 T02410025  RH  024%=      5-min Rain = 0
KME1 182238Z 28016KT 24/03 A2973 RMK A01 T02390026  RH  025%=      5-min Rain = 0
KME1 182239Z 29013G18KT 24/03 A2973 RMK A01 T02380027  RH  025%=      5-min Rain = 0
KME1 182240Z 29014G21KT 24/03 A2973 RMK A01 T02380027  RH  025%=      5-min Rain = 0
KME1 182241Z 28017KT 24/03 A2973 RMK A01 T02370026  RH  025%=      5-min Rain = 0
KME1 182242Z 29015G23KT 24/02 A2973 RMK A01 T02370024  RH  025%=      5-min Rain = 0
KME1 182243Z 28015KT 24/03 A2973 RMK A01 T02360025  RH  025%=      5-min Rain = 0
KME1 182244Z 28016G21KT 24/02 A2973 RMK A01 T02360023  RH  025%=      5-min Rain = 0
KME1 182245Z 28015KT 24/02 A2973 RMK A01 T02360023  RH  025%=      5-min Rain = 0
KME1 182246Z 28014KT 24/02 A2973 RMK A01 T02350024  RH  025%=      5-min Rain = 0
KME1 182247Z 28009KT 23/03 A2973 RMK A01 T02340026  RH  026%=      5-min Rain = 0
KME1 182248Z 28013G22KT 23/03 A2973 RMK A01 T02330027  RH  026%=      5-min Rain = 0
KME1 182249Z 28016KT 23/02 A2973 RMK A01 T02320024  RH  026%=      5-min Rain = 0
KME1 182250Z 27012KT 23/02 A2973 RMK A01 T02310023  RH  026%=      5-min Rain = 0
KME1 182251Z 27014KT 23/03 A2973 RMK A01 T02300025  RH  026%=      5-min Rain = 0
KME1 182252Z 27016G22KT 23/02 A2973 RMK A01 T02280023  RH  026%=      5-min Rain = 0
KME1 182253Z 27014KT 23/02 A2973 RMK A01 T02280021  RH  026%=      5-min Rain = 0
KME1 182254Z 27011KT 23/02 A2974 RMK A01 T02280023  RH  026%=      5-min Rain = 0
KME1 182255Z 28013G19KT 23/03 A2974 RMK A01 T02270025  RH  026%=      5-min Rain = 0
KME1 182256Z 28013KT 23/02 A2974 RMK A01 T02270023  RH  026%=      5-min Rain = 0
KME1 182257Z 27013KT 23/02 A2974 RMK A01 T02280023  RH  026%=      5-min Rain = 0
KME1 182258Z 27013KT 23/02 A2974 RMK A01 T02290022  RH  026%=      5-min Rain = 0
KME1 182259Z 28011KT 23/02 A2974 RMK A01 T02290022  RH  026%=      5-min Rain = 0
KME1 182300Z 29009KT 23/02 A2974 RMK A01 T02290024  RH  026%=      5-min Rain = 0
KME1 182301Z 28012KT 23/02 A2974 RMK A01 T02290024  RH  026%=      5-min Rain = 0
KME1 182302Z 27010KT 23/03 A2974 RMK A01 T02290025  RH  026%=      5-min Rain = 0
KME1 182303Z 28011KT 23/03 A2974 RMK A01 T02290025  RH  026%=      5-min Rain = 0
KME1 182304Z 28012KT 23/03 A2974 RMK A01 T02290025  RH  026%=      5-min Rain = 0
KME1 182305Z 28011KT 23/03 A2974 RMK A01 T02280025  RH  026%=      5-min Rain = 0
KME1 182306Z 28011KT 23/03 A2974 RMK A01 T02280025  RH  026%=      5-min Rain = 0
KME1 182307Z 29011KT 23/03 A2974 RMK A01 T02280025  RH  026%=      5-min Rain = 0
KME1 182308Z 28011KT 23/02 A2974 RMK A01 T02280023  RH  026%=      5-min Rain = 0
KME1 182309Z 28013KT 23/02 A2974 RMK A01 T02280024  RH  026%=      5-min Rain = 0
KME1 182310Z 28015KT 23/02 A2974 RMK A01 T02280022  RH  026%=      5-min Rain = 0
KME1 182311Z 28013G18KT 23/02 A2974 RMK A01 T02270021  RH  026%=      5-min Rain = 0
KME1 182312Z 28011KT 23/02 A2974 RMK A01 T02270021  RH  026%=      5-min Rain = 0
KME1 182313Z 28010KT 23/02 A2974 RMK A01 T02260023  RH  026%=      5-min Rain = 0
KME1 182314Z 28010G16KT 23/02 A2974 RMK A01 T02260023  RH  026%=      5-min Rain = 0
KME1 182315Z 27011KT 23/02 A2974 RMK A01 T02250022  RH  026%=      5-min Rain = 0
KME1 182316Z 28012KT 23/02 A2974 RMK A01 T02250022  RH  026%=      5-min Rain = 0
KME1 182317Z 28010KT 23/02 A2974 RMK A01 T02250023  RH  027%=      5-min Rain = 0
KME1 182318Z 28010KT 22/02 A2974 RMK A01 T02240023  RH  027%=      5-min Rain = 0
KME1 182319Z 29011G16KT 22/02 A2974 RMK A01 T02230024  RH  027%=      5-min Rain = 0
KME1 182320Z 29011KT 22/02 A2974 RMK A01 T02230023  RH  027%=      5-min Rain = 0
KME1 182321Z 29012G20KT 22/02 A2975 RMK A01 T02220023  RH  027%=      5-min Rain = 0
KME1 182322Z 28018G24KT 22/02 A2974 RMK A01 T02220020  RH  026%=      5-min Rain = 0
KME1 182323Z 28013KT 22/02 A2974 RMK A01 T02220019  RH  026%=      5-min Rain = 0
KME1 182324Z 28012KT 22/02 A2974 RMK A01 T02220020  RH  026%=      5-min Rain = 0
KME1 182325Z 28011KT 22/02 A2974 RMK A01 T02210020  RH  026%=      5-min Rain = 0
KME1 182326Z 28012G17KT 22/02 A2974 RMK A01 T02200020  RH  027%=      5-min Rain = 0
KME1 182327Z 28012G17KT 22/02 A2974 RMK A01 T02200020  RH  027%=      5-min Rain = 0
KME1 182328Z 29015G20KT 22/02 A2974 RMK A01 T02200018  RH  026%=      5-min Rain = 0
KME1 182329Z 28011G16KT 22/02 A2974 RMK A01 T02200018  RH  026%=      5-min Rain = 0
KME1 182330Z 29009KT 22/02 A2974 RMK A01 T02200019  RH  027%=      5-min Rain = 0
KME1 182331Z 28011KT 22/02 A2974 RMK A01 T02190019  RH  027%=      5-min Rain = 0
KME1 182332Z 28012G20KT 22/02 A2974 RMK A01 T02190019  RH  027%=      5-min Rain = 0
KME1 182333Z 28013G18KT 22/02 A2975 RMK A01 T02180021  RH  027%=      5-min Rain = 0
KME1 182334Z 29010KT 22/02 A2974 RMK A01 T02180020  RH  027%=      5-min Rain = 0
KME1 182335Z 29010KT 22/02 A2974 RMK A01 T02170021  RH  027%=      5-min Rain = 0
KME1 182336Z 29013G19KT 22/02 A2974 RMK A01 T02160022  RH  028%=      5-min Rain = 0
KME1 182337Z 28014KT 22/02 A2974 RMK A01 T02160020  RH  027%=      5-min Rain = 0
KME1 182338Z 29011G16KT 22/02 A2974 RMK A01 T02160019  RH  027%=      5-min Rain = 0
KME1 182339Z 29009G14KT 22/02 A2974 RMK A01 T02160021  RH  028%=      5-min Rain = 0
KME1 182340Z 28013KT 22/02 A2974 RMK A01 T02150021  RH  028%=      5-min Rain = 0
KME1 182341Z 28009KT 21/02 A2974 RMK A01 T02140021  RH  028%=      5-min Rain = 0
KME1 182342Z 28013KT 21/02 A2974 RMK A01 T02140021  RH  028%=      5-min Rain = 0
KME1 182343Z 28011KT 21/02 A2974 RMK A01 T02130020  RH  028%=      5-min Rain = 0
KME1 182344Z 29009KT 21/02 A2974 RMK A01 T02130021  RH  028%=      5-min Rain = 0
KME1 182345Z 28009KT 21/02 A2974 RMK A01 T02120021  RH  028%=      5-min Rain = 0
KME1 182346Z 28008KT 21/02 A2974 RMK A01 T02110022  RH  029%=      5-min Rain = 0
KME1 182347Z 29011KT 21/02 A2974 RMK A01 T02100021  RH  029%=      5-min Rain = 0
KME1 182348Z 28009KT 21/02 A2974 RMK A01 T02100019  RH  028%=      5-min Rain = 0
KME1 182349Z 28009KT 21/02 A2974 RMK A01 T02100020  RH  028%=      5-min Rain = 0
KME1 182350Z 29008KT 21/02 A2974 RMK A01 T02100020  RH  028%=      5-min Rain = 0
KME1 182351Z 29009KT 21/02 A2974 RMK A01 T02090019  RH  028%=      5-min Rain = 0
KME1 182352Z 28009G14KT 21/02 A2973 RMK A01 T02090020  RH  029%=      5-min Rain = 0
KME1 182353Z 29009KT 21/02 A2973 RMK A01 T02080019  RH  029%=      5-min Rain = 0
KME1 182354Z 28011KT 21/02 A2973 RMK A01 T02080019  RH  029%=      5-min Rain = 0
KME1 182355Z 28010KT 21/02 A2973 RMK A01 T02070018  RH  029%=      5-min Rain = 0
KME1 182356Z 28010KT 21/02 A2974 RMK A01 T02070019  RH  029%=      5-min Rain = 0
KME1 182357Z 28009KT 21/02 A2974 RMK A01 T02070020  RH  029%=      5-min Rain = 0
KME1 182358Z 28009KT 21/02 A2974 RMK A01 T02060020  RH  029%=      5-min Rain = 0
KME1 182359Z 28009KT 21/02 A2974 RMK A01 T02050019  RH  029%=      5-min Rain = 0
KME1 190000Z 28008KT 21/02 A2974 RMK A01 T02050019  RH  029%=      5-min Rain = 0
KME1 190001Z 28009KT 21/02 A2974 RMK A01 T02050019  RH  029%=      5-min Rain = 0
KME1 190002Z 28008KT 21/02 A2974 RMK A01 T02050019  RH  029%=      5-min Rain = 0
KME1 190003Z 27008KT 21/02 A2974 RMK A01 T02050019  RH  029%=      5-min Rain = 0
KME1 190004Z 28007KT 20/02 A2974 RMK A01 T02040020  RH  029%=      5-min Rain = 0
KME1 190005Z 28008KT 20/02 A2974 RMK A01 T02030020  RH  030%=      5-min Rain = 0
KME1 190006Z 28008KT 20/02 A2974 RMK A01 T02030020  RH  030%=      5-min Rain = 0
KME1 190007Z 28010KT 20/02 A2975 RMK A01 T02030019  RH  030%=      5-min Rain = 0
KME1 190008Z 28011G16KT 20/02 A2974 RMK A01 T02030018  RH  029%=      5-min Rain = 0
KME1 190009Z 28009KT 20/02 A2975 RMK A01 T02040019  RH  029%=      5-min Rain = 0
KME1 190010Z 28009KT 20/02 A2975 RMK A01 T02040019  RH  029%=      5-min Rain = 0
KME1 190011Z 28007KT 20/02 A2975 RMK A01 T02040019  RH  029%=      5-min Rain = 0
KME1 190012Z 28008KT 20/02 A2975 RMK A01 T02030020  RH  030%=      5-min Rain = 0
KME1 190013Z 27008KT 20/02 A2975 RMK A01 T02030019  RH  030%=      5-min Rain = 0
KME1 190014Z 27009KT 20/02 A2975 RMK A01 T02020020  RH  030%=      5-min Rain = 0
KME1 190015Z 28008KT 20/02 A2975 RMK A01 T02020019  RH  030%=      5-min Rain = 0
KME1 190016Z 27007KT 20/02 A2975 RMK A01 T02020020  RH  030%=      5-min Rain = 0
KME1 190017Z 27007KT 20/02 A2975 RMK A01 T02020021  RH  030%=      5-min Rain = 0
KME1 190018Z 28008KT 20/02 A2975 RMK A01 T02010021  RH  030%=      5-min Rain = 0
KME1 190019Z 27009KT 20/02 A2975 RMK A01 T02010021  RH  030%=      5-min Rain = 0
KME1 190020Z 28009KT 20/02 A2975 RMK A01 T02000020  RH  030%=      5-min Rain = 0
KME1 190021Z 27008G14KT 20/02 A2975 RMK A01 T02010019  RH  030%=      5-min Rain = 0
KME1 190022Z 27010KT 20/02 A2975 RMK A01 T02010020  RH  030%=      5-min Rain = 0
KME1 190023Z 27009KT 20/02 A2975 RMK A01 T02010019  RH  030%=      5-min Rain = 0
KME1 190024Z 27009KT 20/02 A2975 RMK A01 T02020020  RH  030%=      5-min Rain = 0
KME1 190025Z 27009KT 20/02 A2975 RMK A01 T02020020  RH  030%=      5-min Rain = 0
KME1 190026Z 28008KT 20/02 A2975 RMK A01 T02020021  RH  030%=      5-min Rain = 0
KME1 190027Z 27009KT 20/02 A2975 RMK A01 T02020021  RH  030%=      5-min Rain = 0
KME1 190028Z 28008KT 20/02 A2975 RMK A01 T02010021  RH  030%=      5-min Rain = 0
KME1 190029Z 27008KT 20/02 A2975 RMK A01 T02010021  RH  030%=      5-min Rain = 0
KME1 190030Z 27008KT 20/02 A2976 RMK A01 T02010021  RH  030%=      5-min Rain = 0
KME1 190031Z 27007KT 20/02 A2976 RMK A01 T02010021  RH  030%=      5-min Rain = 0
KME1 190032Z 27008KT 20/02 A2976 RMK A01 T02000021  RH  030%=      5-min Rain = 0
KME1 190033Z 27009KT 20/02 A2976 RMK A01 T02000021  RH  030%=      5-min Rain = 0
KME1 190034Z 27007KT 20/02 A2976 RMK A01 T02000021  RH  030%=      5-min Rain = 0
KME1 190035Z 27006KT 20/02 A2976 RMK A01 T02000022  RH  031%=      5-min Rain = 0
KME1 190036Z 27007KT 20/02 A2976 RMK A01 T01990023  RH  031%=      5-min Rain = 0
KME1 190037Z 27008KT 20/02 A2976 RMK A01 T01980022  RH  031%=      5-min Rain = 0
KME1 190038Z 26008KT 20/02 A2976 RMK A01 T01990021  RH  031%=      5-min Rain = 0
KME1 190039Z 27007KT 20/02 A2976 RMK A01 T01990022  RH  031%=      5-min Rain = 0
KME1 190040Z 27008KT 20/02 A2976 RMK A01 T01990022  RH  031%=      5-min Rain = 0
KME1 190041Z 27007KT 20/02 A2976 RMK A01 T01980022  RH  031%=      5-min Rain = 0
KME1 190042Z 26007KT 20/02 A2976 RMK A01 T01980022  RH  031%=      5-min Rain = 0
KME1 190043Z 27008KT 20/02 A2976 RMK A01 T01980022  RH  031%=      5-min Rain = 0
KME1 190044Z 27009KT 20/02 A2976 RMK A01 T01980022  RH  031%=      5-min Rain = 0
KME1 190045Z 26006KT 20/02 A2976 RMK A01 T01980022  RH  031%=      5-min Rain = 0
KME1 190046Z 27008KT 20/02 A2976 RMK A01 T01980023  RH  031%=      5-min Rain = 0
KME1 190047Z 26006KT 20/02 A2976 RMK A01 T01980023  RH  031%=      5-min Rain = 0
KME1 190048Z 26006KT 20/02 A2976 RMK A01 T01970023  RH  031%=      5-min Rain = 0
KME1 190049Z 26007KT 20/02 A2976 RMK A01 T01970023  RH  031%=      5-min Rain = 0
KME1 190050Z 26007KT 20/02 A2976 RMK A01 T01970023  RH  031%=      5-min Rain = 0
KME1 190051Z 26006KT 20/02 A2976 RMK A01 T01970023  RH  031%=      5-min Rain = 0
KME1 190052Z 26007KT 20/02 A2976 RMK A01 T01970024  RH  032%=      5-min Rain = 0
KME1 190053Z 26007KT 20/02 A2977 RMK A01 T01960023  RH  032%=      5-min Rain = 0
KME1 190054Z 25006KT 20/02 A2976 RMK A01 T01950024  RH  032%=      5-min Rain = 0
KME1 190055Z 25007KT 20/03 A2977 RMK A01 T01950025  RH  032%=      5-min Rain = 0
KME1 190056Z 25006KT 20/02 A2977 RMK A01 T01950024  RH  032%=      5-min Rain = 0
KME1 190057Z 25007KT 19/02 A2977 RMK A01 T01940024  RH  032%=      5-min Rain = 0
KME1 190058Z 26010KT 19/02 A2977 RMK A01 T01940023  RH  032%=      5-min Rain = 0
KME1 190059Z 25009G14KT 20/02 A2977 RMK A01 T01950022  RH  032%=      5-min Rain = 0
KME1 190100Z 25011KT 20/02 A2977 RMK A01 T01970021  RH  031%=      5-min Rain = 0
KME1 190101Z 25007KT 20/02 A2977 RMK A01 T01980022  RH  031%=      5-min Rain = 0
KME1 190102Z 26007KT 20/02 A2977 RMK A01 T01980024  RH  031%=      5-min Rain = 0
KME1 190103Z 25006KT 20/02 A2977 RMK A01 T01970024  RH  032%=      5-min Rain = 0
KME1 190104Z 26007KT 20/02 A2977 RMK A01 T01960024  RH  032%=      5-min Rain = 0
KME1 190105Z 27008KT 20/02 A2977 RMK A01 T01950024  RH  032%=      5-min Rain = 0
KME1 190106Z 27008G13KT 20/02 A2977 RMK A01 T01950023  RH  032%=      5-min Rain = 0
KME1 190107Z 27009KT 20/02 A2977 RMK A01 T01960022  RH  031%=      5-min Rain = 0
KME1 190108Z 27009KT 20/02 A2977 RMK A01 T01960023  RH  032%=      5-min Rain = 0
KME1 190109Z 27009G17KT 20/02 A2978 RMK A01 T01970024  RH  032%=      5-min Rain = 0
KME1 190110Z 28013G18KT 20/03 A2978 RMK A01 T01960025  RH  032%=      5-min Rain = 0
KME1 190111Z 28011KT 20/02 A2978 RMK A01 T01960023  RH  032%=      5-min Rain = 0
KME1 190112Z 28010G15KT 20/02 A2978 RMK A01 T01960024  RH  032%=      5-min Rain = 0
KME1 190113Z 28011KT 20/02 A2978 RMK A01 T01970024  RH  032%=      5-min Rain = 0
KME1 190114Z 29015KT 20/02 A2978 RMK A01 T01970024  RH  032%=      5-min Rain = 0
KME1 190115Z 30010KT 20/03 A2978 RMK A01 T01970026  RH  032%=      5-min Rain = 0
KME1 190116Z 30013G21KT 20/03 A2978 RMK A01 T01960027  RH  032%=      5-min Rain = 0
KME1 190117Z 31018G23KT 20/03 A2978 RMK A01 T01960029  RH  033%=      5-min Rain = 0
KME1 190118Z 30017G22KT 20/03 A2978 RMK A01 T01950030  RH  033%=      5-min Rain = 0
KME1 190119Z 30016KT 20/03 A2978 RMK A01 T01950031  RH  034%=      5-min Rain = 0
KME1 190120Z 29013KT 19/03 A2978 RMK A01 T01930032  RH  034%=      5-min Rain = 0
KME1 190121Z 30013G18KT 19/03 A2979 RMK A01 T01930033  RH  035%=      5-min Rain = 0
KME1 190122Z 29010G15KT 19/03 A2979 RMK A01 T01920034  RH  035%=      5-min Rain = 0
KME1 190123Z 30013G19KT 19/03 A2979 RMK A01 T01910034  RH  035%=      5-min Rain = 0
KME1 190124Z 31015G20KT 19/03 A2979 RMK A01 T01900034  RH  035%=      5-min Rain = 0
KME1 190125Z 31012KT 19/03 A2979 RMK A01 T01890034  RH  036%=      5-min Rain = 0
KME1 190126Z 31019G24KT 19/03 A2979 RMK A01 T01890033  RH  036%=      5-min Rain = 0
KME1 190127Z 32016G21KT 19/03 A2979 RMK A01 T01880033  RH  036%=      5-min Rain = 0
KME1 190128Z 31017G22KT 19/03 A2979 RMK A01 T01870033  RH  036%=      5-min Rain = 0
KME1 190129Z 32019G28KT 19/03 A2979 RMK A01 T01870032  RH  036%=      5-min Rain = 0
KME1 190130Z 32018G25KT 19/03 A2979 RMK A01 T01860030  RH  035%=      5-min Rain = 0
KME1 190131Z 32016G28KT 19/03 A2979 RMK A01 T01860031  RH  036%=      5-min Rain = 0
KME1 190132Z 31019G27KT 19/03 A2979 RMK A01 T01850030  RH  036%=      5-min Rain = 0
KME1 190133Z 32014KT 18/03 A298 RMK A01 T01840031  RH  036%=      5-min Rain = 0
KME1 190134Z 31016G24KT 18/03 A298 RMK A01 T01820030  RH  036%=      5-min Rain = 0
KME1 190135Z 31019G25KT 18/03 A298 RMK A01 T01820027  RH  036%=      5-min Rain = 0
KME1 190136Z 31021KT 18/03 A298 RMK A01 T01810026  RH  035%=      5-min Rain = 0
KME1 190137Z 31017KT 18/02 A298 RMK A01 T01810024  RH  035%=      5-min Rain = 0
KME1 190138Z 32015KT 18/02 A298 RMK A01 T01800024  RH  035%=      5-min Rain = 0
KME1 190139Z 31014G19KT 18/02 A298 RMK A01 T01800023  RH  035%=      5-min Rain = 0
KME1 190140Z 31014G19KT 18/02 A298 RMK A01 T01790023  RH  035%=      5-min Rain = 0
KME1 190141Z 31016KT 18/02 A298 RMK A01 T01790022  RH  035%=      5-min Rain = 0
KME1 190142Z 31018G24KT 18/02 A298 RMK A01 T01780021  RH  035%=      5-min Rain = 0
KME1 190143Z 31015KT 18/02 A298 RMK A01 T01780020  RH  035%=      5-min Rain = 0
KME1 190144Z 31012KT 18/02 A298 RMK A01 T01770020  RH  035%=      5-min Rain = 0
KME1 190145Z 31014G20KT 18/02 A298 RMK A01 T01770020  RH  035%=      5-min Rain = 0
KME1 190146Z 31017KT 18/02 A298 RMK A01 T01760019  RH  035%=      5-min Rain = 0
KME1 190147Z 30014KT 18/02 A2981 RMK A01 T01760019  RH  035%=      5-min Rain = 0
KME1 190148Z 30014G19KT 18/02 A2981 RMK A01 T01760018  RH  035%=      5-min Rain = 0
KME1 190149Z 30012KT 18/02 A2981 RMK A01 T01760017  RH  035%=      5-min Rain = 0
KME1 190150Z 31010G15KT 18/02 A2981 RMK A01 T01760018  RH  035%=      5-min Rain = 0
KME1 190151Z 30011G17KT 18/02 A2981 RMK A01 T01750018  RH  035%=      5-min Rain = 0
KME1 190152Z 30014KT 18/02 A2981 RMK A01 T01750017  RH  034%=      5-min Rain = 0
KME1 190153Z 30013KT 17/02 A2981 RMK A01 T01740015  RH  034%=      5-min Rain = 0
KME1 190154Z 30014KT 17/01 A2981 RMK A01 T01740013  RH  034%=      5-min Rain = 0
KME1 190155Z 30012G17KT 17/01 A2981 RMK A01 T01740012  RH  033%=      5-min Rain = 0
KME1 190156Z 30010G15KT 17/01 A2981 RMK A01 T01740012  RH  033%=      5-min Rain = 0
KME1 190157Z 31016G21KT 17/01 A2981 RMK A01 T01740011  RH  033%=      5-min Rain = 0
KME1 190158Z 30015KT 17/01 A2981 RMK A01 T01740009  RH  033%=      5-min Rain = 0
KME1 190159Z 30015G20KT 17/01 A2981 RMK A01 T01740007  RH  032%=      5-min Rain = 0
KME1 190200Z 31013G18KT 17/01 A2981 RMK A01 T01740006  RH  032%=      5-min Rain = 0
KME1 190201Z 31014KT 17/01 A2981 RMK A01 T01740005  RH  032%=      5-min Rain = 0
KME1 190202Z 31014G19KT 17/00 A2981 RMK A01 T01730004  RH  032%=      5-min Rain = 0
KME1 190203Z 30017G23KT 17/00 A2981 RMK A01 T01730001  RH  031%=      5-min Rain = 0
KME1 190204Z 31013G19KT 17/M00 A2982 RMK A01 T01741001  RH  031%=      5-min Rain = 0
KME1 190205Z 30011KT 17/00 A2982 RMK A01 T01740001  RH  031%=      5-min Rain = 0
KME1 190206Z 30015KT 17/00 A2982 RMK A01 T017300-0  RH  031%=      5-min Rain = 0
KME1 190207Z 31012KT 17/M00 A2982 RMK A01 T01731003  RH  030%=      5-min Rain = 0
KME1 190208Z 31015KT 17/M00 A2982 RMK A01 T01731004  RH  030%=      5-min Rain = 0
KME1 190209Z 31014KT 17/M01 A2982 RMK A01 T01731005  RH  030%=      5-min Rain = 0
KME1 190210Z 30018G23KT 17/M01 A2982 RMK A01 T01731008  RH  029%=      5-min Rain = 0
KME1 190211Z 30015KT 17/M01 A2982 RMK A01 T01731008  RH  029%=      5-min Rain = 0
KME1 190212Z 31014KT 17/M01 A2983 RMK A01 T01731008  RH  029%=      5-min Rain = 0
KME1 190213Z 30016G25KT 17/M01 A2983 RMK A01 T01731008  RH  029%=      5-min Rain = 0
KME1 190214Z 31016KT 17/M01 A2983 RMK A01 T01731010  RH  029%=      5-min Rain = 0
KME1 190215Z 30019KT 17/M01 A2983 RMK A01 T01731012  RH  028%=      5-min Rain = 0
KME1 190216Z 30018G25KT 17/M01 A2982 RMK A01 T01731012  RH  028%=      5-min Rain = 0
KME1 190217Z 30019G26KT 17/M01 A2982 RMK A01 T01731013  RH  028%=      5-min Rain = 0
KME1 190218Z 31013KT 17/M01 A2983 RMK A01 T01731011  RH  029%=      5-min Rain = 0
KME1 190219Z 31018G25KT 17/M01 A2983 RMK A01 T01721011  RH  029%=      5-min Rain = 0
KME1 190220Z 31016KT 17/M01 A2983 RMK A01 T01721011  RH  029%=      5-min Rain = 0
KME1 190221Z 30015G20KT 17/M01 A2983 RMK A01 T01721010  RH  029%=      5-min Rain = 0
KME1 190222Z 31015G22KT 17/M01 A2983 RMK A01 T01711010  RH  029%=      5-min Rain = 0
KME1 190223Z 31017G23KT 17/M01 A2983 RMK A01 T01711012  RH  029%=      5-min Rain = 0
KME1 190224Z 30016KT 17/M01 A2983 RMK A01 T01711013  RH  028%=      5-min Rain = 0
KME1 190225Z 31018G23KT 17/M01 A2983 RMK A01 T01711013  RH  029%=      5-min Rain = 0
KME1 190226Z 31018G24KT 17/M01 A2983 RMK A01 T01711013  RH  028%=      5-min Rain = 0
KME1 190227Z 31021G27KT 17/M01 A2983 RMK A01 T01711014  RH  028%=      5-min Rain = 0
KME1 190228Z 31017KT 17/M02 A2983 RMK A01 T01711015  RH  028%=      5-min Rain = 0
KME1 190229Z 30022G29KT 17/M02 A2983 RMK A01 T01711015  RH  028%=      5-min Rain = 0
KME1 190230Z 30018G25KT 17/M02 A2984 RMK A01 T01711016  RH  028%=      5-min Rain = 0
KME1 190231Z 31016KT 17/M02 A2984 RMK A01 T01711017  RH  028%=      5-min Rain = 0
KME1 190232Z 31016G27KT 17/M02 A2984 RMK A01 T01701016  RH  028%=      5-min Rain = 0
KME1 190233Z 31019G26KT 17/M02 A2984 RMK A01 T01701016  RH  028%=      5-min Rain = 0
KME1 190234Z 31020G28KT 17/M02 A2984 RMK A01 T01701017  RH  028%=      5-min Rain = 0
KME1 190235Z 31022G28KT 17/M02 A2984 RMK A01 T01701018  RH  028%=      5-min Rain = 0
KME1 190236Z 31024G32KT 17/M02 A2984 RMK A01 T01701019  RH  028%=      5-min Rain = 0
KME1 190237Z 31021G27KT 17/M02 A2985 RMK A01 T01701019  RH  027%=      5-min Rain = 0
KME1 190238Z 32020G31KT 17/M02 A2985 RMK A01 T01701018  RH  028%=      5-min Rain = 0
KME1 190239Z 31023G28KT 17/M02 A2985 RMK A01 T01691019  RH  028%=      5-min Rain = 0
KME1 190240Z 31020G27KT 17/M02 A2985 RMK A01 T01691019  RH  028%=      5-min Rain = 0
KME1 190241Z 31022G31KT 17/M02 A2985 RMK A01 T01681019  RH  028%=      5-min Rain = 0
KME1 190242Z 31024G36KT 17/M02 A2985 RMK A01 T01681020  RH  028%=      5-min Rain = 0
KME1 190243Z 32024G32KT 17/M02 A2985 RMK A01 T01681021  RH  027%=      5-min Rain = 0
KME1 190244Z 32023G28KT 17/M02 A2985 RMK A01 T01671021  RH  028%=      5-min Rain = 0
KME1 190245Z 32022G29KT 17/M02 A2985 RMK A01 T01671021  RH  028%=      5-min Rain = 0
KME1 190246Z 32017G22KT 17/M02 A2986 RMK A01 T01661020  RH  028%=      5-min Rain = 0
KME1 190247Z 32019G24KT 17/M02 A2986 RMK A01 T01651019  RH  028%=      5-min Rain = 0
KME1 190248Z 32017G24KT 16/M02 A2986 RMK A01 T01641018  RH  029%=      5-min Rain = 0
KME1 190249Z 31018G23KT 16/M02 A2986 RMK A01 T01631018  RH  029%=      5-min Rain = 0
KME1 190250Z 31013G20KT 16/M02 A2986 RMK A01 T01621018  RH  029%=      5-min Rain = 0
KME1 190251Z 31015KT 16/M02 A2986 RMK A01 T01611017  RH  029%=      5-min Rain = 0
KME1 190252Z 31018G26KT 16/M02 A2986 RMK A01 T01611017  RH  029%=      5-min Rain = 0
KME1 190253Z 31019G25KT 16/M02 A2986 RMK A01 T01611019  RH  029%=      5-min Rain = 0
KME1 190254Z 32018G24KT 16/M02 A2986 RMK A01 T01611020  RH  029%=      5-min Rain = 0
KME1 190255Z 30016G21KT 16/M02 A2986 RMK A01 T01611020  RH  029%=      5-min Rain = 0
KME1 190256Z 30015KT 16/M02 A2986 RMK A01 T01611021  RH  029%=      5-min Rain = 0
KME1 190257Z 30013G18KT 16/M02 A2986 RMK A01 T01611020  RH  029%=      5-min Rain = 0
KME1 190258Z 30013G18KT 16/M02 A2986 RMK A01 T01611020  RH  029%=      5-min Rain = 0
KME1 190259Z 30011KT 16/M02 A2986 RMK A01 T01601020  RH  029%=      5-min Rain = 0
KME1 190300Z 31014G19KT 16/M02 A2986 RMK A01 T01591020  RH  029%=      5-min Rain = 0
KME1 190301Z 30013KT 16/M02 A2986 RMK A01 T01591021  RH  029%=      5-min Rain = 0
KME1 190302Z 30013KT 16/M02 A2986 RMK A01 T01591022  RH  029%=      5-min Rain = 0
KME1 190303Z 30017G25KT 16/M02 A2986 RMK A01 T01591022  RH  029%=      5-min Rain = 0
KME1 190304Z 30018G23KT 16/M02 A2986 RMK A01 T01591024  RH  028%=      5-min Rain = 0
KME1 190305Z 30015KT 16/M02 A2986 RMK A01 T01591024  RH  028%=      5-min Rain = 0
KME1 190306Z 30014G19KT 16/M02 A2987 RMK A01 T01591024  RH  028%=      5-min Rain = 0
KME1 190307Z 29015KT 16/M02 A2987 RMK A01 T01591024  RH  028%=      5-min Rain = 0
KME1 190308Z 30015KT 16/M03 A2987 RMK A01 T01581025  RH  028%=      5-min Rain = 0
KME1 190309Z 30017G24KT 16/M03 A2987 RMK A01 T01581026  RH  028%=      5-min Rain = 0
KME1 190310Z 30016KT 16/M03 A2987 RMK A01 T01591027  RH  028%=      5-min Rain = 0
KME1 190311Z 30012G17KT 16/M03 A2987 RMK A01 T01591027  RH  028%=      5-min Rain = 0
KME1 190312Z 30015KT 16/M03 A2987 RMK A01 T01591026  RH  028%=      5-min Rain = 0
KME1 190313Z 31018G23KT 16/M03 A2987 RMK A01 T01581027  RH  028%=      5-min Rain = 0
KME1 190314Z 30012KT 16/M03 A2987 RMK A01 T01581027  RH  028%=      5-min Rain = 0
KME1 190315Z 30013G19KT 16/M03 A2987 RMK A01 T01581026  RH  028%=      5-min Rain = 0
KME1 190316Z 30014G19KT 16/M03 A2987 RMK A01 T01571027  RH  028%=      5-min Rain = 0
KME1 190317Z 30012KT 16/M03 A2987 RMK A01 T01571026  RH  028%=      5-min Rain = 0
KME1 190318Z 30012KT 16/M03 A2987 RMK A01 T01561027  RH  028%=      5-min Rain = 0
KME1 190319Z 30013KT 16/M03 A2987 RMK A01 T01551027  RH  028%=      5-min Rain = 0
KME1 190320Z 29014G19KT 16/M03 A2987 RMK A01 T01551028  RH  028%=      5-min Rain = 0
KME1 190321Z 30013G19KT 16/M03 A2987 RMK A01 T01551029  RH  028%=      5-min Rain = 0
KME1 190322Z 30013G18KT 16/M03 A2988 RMK A01 T01551028  RH  028%=      5-min Rain = 0
KME1 190323Z 30013G18KT 15/M03 A2988 RMK A01 T01541030  RH  028%=      5-min Rain = 0
KME1 190324Z 29012G18KT 15/M03 A2988 RMK A01 T01541029  RH  028%=      5-min Rain = 0
KME1 190325Z 30012KT 15/M03 A2988 RMK A01 T01541030  RH  028%=      5-min Rain = 0
KME1 190326Z 30013KT 15/M03 A2988 RMK A01 T01541030  RH  028%=      5-min Rain = 0
KME1 190327Z 30013KT 15/M03 A2988 RMK A01 T01541031  RH  028%=      5-min Rain = 0
KME1 190328Z 30014G19KT 15/M03 A2988 RMK A01 T01531031  RH  028%=      5-min Rain = 0
KME1 190329Z 30014KT 15/M03 A2987 RMK A01 T01541031  RH  028%=      5-min Rain = 0
KME1 190330Z 30011KT 15/M03 A2988 RMK A01 T01531032  RH  028%=      5-min Rain = 0
KME1 190331Z 30011G16KT 15/M03 A2988 RMK A01 T01541031  RH  028%=      5-min Rain = 0
KME1 190332Z 30013KT 15/M03 A2987 RMK A01 T01531033  RH  028%=      5-min Rain = 0
KME1 190333Z 30010G15KT 15/M03 A2988 RMK A01 T01531033  RH  028%=      5-min Rain = 0
KME1 190334Z 30009KT 15/M03 A2988 RMK A01 T01531032  RH  028%=      5-min Rain = 0
KME1 190335Z 30009KT 15/M03 A2987 RMK A01 T01521032  RH  028%=      5-min Rain = 0
KME1 190336Z 30011G17KT 15/M03 A2988 RMK A01 T01521032  RH  028%=      5-min Rain = 0
KME1 190337Z 30013KT 15/M03 A2987 RMK A01 T01521033  RH  028%=      5-min Rain = 0
KME1 190338Z 30014KT 15/M04 A2987 RMK A01 T01531035  RH  027%=      5-min Rain = 0
KME1 190339Z 31020G25KT 15/M04 A2987 RMK A01 T01531036  RH  027%=      5-min Rain = 0
KME1 190340Z 30015KT 16/M04 A2987 RMK A01 T01561037  RH  026%=      5-min Rain = 0
KME1 190341Z 30014KT 16/M04 A2988 RMK A01 T01561036  RH  026%=      5-min Rain = 0
KME1 190342Z 29013G18KT 16/M04 A2988 RMK A01 T01561036  RH  026%=      5-min Rain = 0
KME1 190343Z 30014KT 16/M04 A2988 RMK A01 T01561036  RH  026%=      5-min Rain = 0
KME1 190344Z 30018G24KT 16/M04 A2988 RMK A01 T01561037  RH  026%=      5-min Rain = 0
KME1 190345Z 29013KT 16/M04 A2988 RMK A01 T01561036  RH  026%=      5-min Rain = 0
KME1 190346Z 30013G19KT 16/M04 A2989 RMK A01 T01561036  RH  027%=      5-min Rain = 0
KME1 190347Z 29015KT 16/M04 A2988 RMK A01 T01551036  RH  027%=      5-min Rain = 0
KME1 190348Z 29015KT 16/M04 A2989 RMK A01 T01561037  RH  026%=      5-min Rain = 0
KME1 190349Z 29012KT 16/M04 A2989 RMK A01 T01561036  RH  026%=      5-min Rain = 0
KME1 190350Z 29012KT 16/M04 A2989 RMK A01 T01561036  RH  027%=      5-min Rain = 0
KME1 190351Z 29015KT 16/M04 A2989 RMK A01 T01551036  RH  027%=      5-min Rain = 0
KME1 190352Z 29014KT 16/M04 A2989 RMK A01 T01551037  RH  026%=      5-min Rain = 0
KME1 190353Z 29010KT 16/M04 A2989 RMK A01 T01551035  RH  027%=      5-min Rain = 0
KME1 190354Z 29012KT 15/M04 A2989 RMK A01 T01541035  RH  027%=      5-min Rain = 0
KME1 190355Z 29013KT 15/M04 A2989 RMK A01 T01541036  RH  027%=      5-min Rain = 0
KME1 190356Z 29011G17KT 15/M04 A2989 RMK A01 T01541037  RH  027%=      5-min Rain = 0
KME1 190357Z 29011G16KT 15/M04 A2989 RMK A01 T01541036  RH  027%=      5-min Rain = 0
KME1 190358Z 29010G15KT 15/M04 A2989 RMK A01 T01541035  RH  027%=      5-min Rain = 0
KME1 190359Z 29009G15KT 15/M04 A2989 RMK A01 T01531035  RH  027%=      5-min Rain = 0
KME1 190400Z 29018KT 15/M04 A2989 RMK A01 T01521037  RH  027%=      5-min Rain = 0
KME1 190401Z 29012KT 15/M04 A2989 RMK A01 T01541039  RH  026%=      5-min Rain = 0
KME1 190402Z 28015G22KT 15/M04 A2989 RMK A01 T01541038  RH  026%=      5-min Rain = 0
KME1 190403Z 29012KT 15/M04 A2989 RMK A01 T01541039  RH  026%=      5-min Rain = 0
KME1 190404Z 29017KT 16/M04 A2989 RMK A01 T01551038  RH  026%=      5-min Rain = 0
KME1 190405Z 29013G19KT 15/M04 A2989 RMK A01 T01541038  RH  026%=      5-min Rain = 0
KME1 190406Z 29010KT 15/M04 A2989 RMK A01 T01541038  RH  026%=      5-min Rain = 0
KME1 190407Z 29008KT 15/M04 A2989 RMK A01 T01541037  RH  027%=      5-min Rain = 0
KME1 190408Z 29010KT 15/M04 A2989 RMK A01 T01531037  RH  027%=      5-min Rain = 0
KME1 190409Z 29010KT 15/M04 A299 RMK A01 T01531037  RH  027%=      5-min Rain = 0
KME1 190410Z 29012KT 15/M04 A299 RMK A01 T01531037  RH  027%=      5-min Rain = 0
KME1 190411Z 30014G20KT 15/M04 A299 RMK A01 T01531038  RH  027%=      5-min Rain = 0
KME1 190412Z 30015KT 16/M04 A299 RMK A01 T01551038  RH  026%=      5-min Rain = 0
KME1 190413Z 29015KT 16/M04 A299 RMK A01 T01561038  RH  026%=      5-min Rain = 0
KME1 190414Z 29013G19KT 16/M04 A299 RMK A01 T01561038  RH  026%=      5-min Rain = 0
KME1 190415Z 30016KT 16/M04 A299 RMK A01 T01561038  RH  026%=      5-min Rain = 0
KME1 190416Z 29020G29KT 16/M04 A299 RMK A01 T01561038  RH  026%=      5-min Rain = 0
KME1 190417Z 29018G24KT 16/M04 A299 RMK A01 T01581039  RH  026%=      5-min Rain = 0
KME1 190418Z 30019G25KT 16/M04 A299 RMK A01 T01591038  RH  026%=      5-min Rain = 0
KME1 190419Z 30019KT 16/M04 A299 RMK A01 T01591039  RH  025%=      5-min Rain = 0
KME1 190420Z 30019G25KT 16/M04 A299 RMK A01 T01591039  RH  025%=      5-min Rain = 0
KME1 190421Z 31025G31KT 16/M04 A299 RMK A01 T01591039  RH  025%=      5-min Rain = 0
KME1 190422Z 30024G30KT 16/M04 A299 RMK A01 T01601040  RH  025%=      5-min Rain = 0
KME1 190423Z 30025G31KT 16/M04 A299 RMK A01 T01591039  RH  025%=      5-min Rain = 0
KME1 190424Z 31027G37KT 16/M04 A299 RMK A01 T01601038  RH  026%=      5-min Rain = 0
KME1 190425Z 30027G36KT 16/M04 A299 RMK A01 T01601037  RH  026%=      5-min Rain = 0
KME1 190426Z 30021G29KT 16/M04 A299 RMK A01 T01591038  RH  025%=      5-min Rain = 0
KME1 190427Z 29018G23KT 16/M04 A299 RMK A01 T01591037  RH  026%=      5-min Rain = 0
KME1 190428Z 30017G22KT 16/M04 A299 RMK A01 T01591038  RH  026%=      5-min Rain = 0
KME1 190429Z 30018G25KT 16/M04 A299 RMK A01 T01581038  RH  026%=      5-min Rain = 0
KME1 190430Z 29016KT 16/M04 A299 RMK A01 T01581038  RH  026%=      5-min Rain = 0
KME1 190431Z 30017G24KT 16/M04 A299 RMK A01 T01581038  RH  026%=      5-min Rain = 0
KME1 190432Z 30015G22KT 16/M04 A299 RMK A01 T01581039  RH  026%=      5-min Rain = 0
KME1 190433Z 30013G21KT 16/M04 A2991 RMK A01 T01571039  RH  026%=      5-min Rain = 0
KME1 190434Z 30019KT 16/M04 A2991 RMK A01 T01561040  RH  026%=      5-min Rain = 0
KME1 190435Z 30019G25KT 16/M04 A299 RMK A01 T01561041  RH  026%=      5-min Rain = 0
KME1 190436Z 30016G22KT 16/M04 A299 RMK A01 T01561041  RH  025%=      5-min Rain = 0
KME1 190437Z 30016G22KT 16/M04 A299 RMK A01 T01561041  RH  026%=      5-min Rain = 0
KME1 190438Z 30016G22KT 16/M04 A2991 RMK A01 T01551041  RH  026%=      5-min Rain = 0
KME1 190439Z 30018KT 16/M04 A2991 RMK A01 T01551041  RH  026%=      5-min Rain = 0
KME1 190440Z 30014KT 16/M04 A2991 RMK A01 T01551041  RH  026%=      5-min Rain = 0
KME1 190441Z 30012G21KT 15/M04 A2991 RMK A01 T01541041  RH  026%=      5-min Rain = 0
KME1 190442Z 30018G26KT 15/M04 A2991 RMK A01 T01531040  RH  026%=      5-min Rain = 0
KME1 190443Z 30017G25KT 15/M04 A2991 RMK A01 T01531042  RH  026%=      5-min Rain = 0
KME1 190444Z 30019G26KT 15/M04 A2991 RMK A01 T01531042  RH  026%=      5-min Rain = 0
KME1 190445Z 31018G25KT 15/M04 A2991 RMK A01 T01531042  RH  026%=      5-min Rain = 0
KME1 190446Z 31018G24KT 15/M04 A2991 RMK A01 T01531042  RH  026%=      5-min Rain = 0
KME1 190447Z 30018G24KT 15/M04 A2991 RMK A01 T01521041  RH  026%=      5-min Rain = 0
KME1 190448Z 30017G22KT 15/M04 A2991 RMK A01 T01521042  RH  026%=      5-min Rain = 0
KME1 190449Z 31019G28KT 15/M04 A2991 RMK A01 T01521041  RH  026%=      5-min Rain = 0
KME1 190450Z 31019KT 15/M04 A2991 RMK A01 T01511041  RH  026%=      5-min Rain = 0
KME1 190451Z 31021G30KT 15/M04 A2991 RMK A01 T01511040  RH  027%=      5-min Rain = 0
KME1 190452Z 31018KT 15/M04 A2991 RMK A01 T01511039  RH  027%=      5-min Rain = 0
KME1 190453Z 31019G29KT 15/M04 A2991 RMK A01 T01501038  RH  027%=      5-min Rain = 0
KME1 190454Z 32020G25KT 15/M04 A2991 RMK A01 T01501037  RH  027%=      5-min Rain = 0
KME1 190455Z 32019G24KT 15/M04 A2992 RMK A01 T01491036  RH  028%=      5-min Rain = 0
KME1 190456Z 33018G25KT 15/M03 A2992 RMK A01 T01481032  RH  029%=      5-min Rain = 0
KME1 190457Z 34020KT 15/M03 A2992 RMK A01 T01471028  RH  030%=      5-min Rain = 0
KME1 190458Z 33018G23KT 15/M02 A2992 RMK A01 T01451023  RH  031%=      5-min Rain = 0
KME1 190459Z 33016KT 14/M02 A2992 RMK A01 T01441019  RH  033%=      5-min Rain = 0
KME1 190500Z 32019G24KT 14/M02 A2992 RMK A01 T01431016  RH  033%=      5-min Rain = 0
KME1 190501Z 32013G19KT 14/M01 A2992 RMK A01 T01421014  RH  034%=      5-min Rain = 0
KME1 190502Z 32014G19KT 14/M01 A2993 RMK A01 T01411013  RH  035%=      5-min Rain = 0
KME1 190503Z 32013G19KT 14/M01 A2993 RMK A01 T01401011  RH  035%=      5-min Rain = 0
KME1 190504Z 32017KT 14/M01 A2993 RMK A01 T01391010  RH  036%=      5-min Rain = 0
KME1 190505Z 32015KT 14/M01 A2993 RMK A01 T01391008  RH  036%=      5-min Rain = 0
KME1 190506Z 30014G20KT 14/M01 A2994 RMK A01 T01381006  RH  037%=      5-min Rain = 0
KME1 190507Z 31016KT 14/M01 A2994 RMK A01 T01371006  RH  037%=      5-min Rain = 0
KME1 190508Z 32018G23KT 14/M01 A2993 RMK A01 T01371005  RH  038%=      5-min Rain = 0
KME1 190509Z 31013KT 14/M00 A2994 RMK A01 T01371003  RH  038%=      5-min Rain = 0
KME1 190510Z 31015G24KT 14/M00 A2994 RMK A01 T01361003  RH  038%=      5-min Rain = 0
KME1 190511Z 31015G20KT 14/M00 A2994 RMK A01 T01351001  RH  039%=      5-min Rain = 0
KME1 190512Z 31016G21KT 14/00 A2994 RMK A01 T013500-0  RH  040%=      5-min Rain = 0
KME1 190513Z 32018G25KT 13/00 A2994 RMK A01 T01340001  RH  040%=      5-min Rain = 0
KME1 190514Z 33013G19KT 13/00 A2994 RMK A01 T01340001  RH  040%=      5-min Rain = 0
KME1 190515Z 32010KT 13/00 A2994 RMK A01 T01330002  RH  041%=      5-min Rain = 0
KME1 190516Z 32012KT 13/00 A2994 RMK A01 T01320002  RH  041%=      5-min Rain = 0
KME1 190517Z 33011G17KT 13/00 A2995 RMK A01 T01310003  RH  041%=      5-min Rain = 0
KME1 190518Z 32015G20KT 13/01 A2995 RMK A01 T01300005  RH  042%=      5-min Rain = 0
KME1 190519Z 32018G24KT 13/01 A2995 RMK A01 T01290006  RH  043%=      5-min Rain = 0
KME1 190520Z 32017G24KT 13/01 A2995 RMK A01 T01290008  RH  044%=      5-min Rain = 0
KME1 190521Z 32022G27KT 13/01 A2995 RMK A01 T01280010  RH  044%=      5-min Rain = 0
KME1 190522Z 33018G23KT 13/01 A2995 RMK A01 T01270012  RH  045%=      5-min Rain = 0
KME1 190523Z 33019G28KT 13/01 A2995 RMK A01 T01260012  RH  046%=      5-min Rain = 0
KME1 190524Z 32019G26KT 13/01 A2995 RMK A01 T01250012  RH  046%=      5-min Rain = 0
KME1 190525Z 31023KT 12/01 A2995 RMK A01 T01240012  RH  046%=      5-min Rain = 0
KME1 190526Z 32025G32KT 12/01 A2995 RMK A01 T01240012  RH  047%=      5-min Rain = 0
KME1 190527Z 32024G32KT 12/01 A2995 RMK A01 T01230013  RH  047%=      5-min Rain = 0
KME1 190528Z 31020KT 12/01 A2995 RMK A01 T01220013  RH  047%=      5-min Rain = 0
KME1 190529Z 32022G27KT 12/01 A2995 RMK A01 T01210014  RH  048%=      5-min Rain = 0
KME1 190530Z 31019G24KT 12/01 A2995 RMK A01 T01200014  RH  048%=      5-min Rain = 0
KME1 190531Z 31020G26KT 12/02 A2995 RMK A01 T01190015  RH  049%=      5-min Rain = 0
KME1 190532Z 31016G22KT 12/02 A2996 RMK A01 T01190015  RH  049%=      5-min Rain = 0
KME1 190533Z 31016G23KT 12/02 A2996 RMK A01 T01180015  RH  049%=      5-min Rain = 0
KME1 190534Z 31015G21KT 12/02 A2996 RMK A01 T01170016  RH  050%=      5-min Rain = 0
KME1 190535Z 31017G23KT 12/02 A2996 RMK A01 T01160016  RH  050%=      5-min Rain = 0
KME1 190536Z 32013KT 12/02 A2996 RMK A01 T01150016  RH  050%=      5-min Rain = 0
KME1 190537Z 31014KT 11/02 A2996 RMK A01 T01140016  RH  051%=      5-min Rain = 0
KME1 190538Z 31017KT 11/02 A2996 RMK A01 T01140016  RH  051%=      5-min Rain = 0
KME1 190539Z 32016KT 11/02 A2996 RMK A01 T01140016  RH  051%=      5-min Rain = 0
KME1 190540Z 31011G17KT 11/02 A2996 RMK A01 T01130016  RH  051%=      5-min Rain = 0
KME1 190541Z 31015G21KT 11/02 A2996 RMK A01 T01130016  RH  051%=      5-min Rain = 0
KME1 190542Z 31017G22KT 11/02 A2996 RMK A01 T01130016  RH  052%=      5-min Rain = 0
KME1 190543Z 32017G25KT 11/02 A2996 RMK A01 T01120016  RH  052%=      5-min Rain = 0
KME1 190544Z 30015KT 11/02 A2996 RMK A01 T01120016  RH  052%=      5-min Rain = 0
KME1 190545Z 32013G18KT 11/02 A2996 RMK A01 T01120017  RH  052%=      5-min Rain = 0
KME1 190546Z 31015G23KT 11/02 A2996 RMK A01 T01110017  RH  052%=      5-min Rain = 0
KME1 190547Z 31018G23KT 11/02 A2996 RMK A01 T01100016  RH  052%=      5-min Rain = 0
KME1 190548Z 31015KT 11/02 A2996 RMK A01 T01110016  RH  052%=      5-min Rain = 0
KME1 190549Z 31014G21KT 11/02 A2997 RMK A01 T01110016  RH  052%=      5-min Rain = 0
KME1 190550Z 31013KT 11/02 A2997 RMK A01 T01110017  RH  052%=      5-min Rain = 0
KME1 190551Z 31019G25KT 11/02 A2997 RMK A01 T01100016  RH  053%=      5-min Rain = 0
KME1 190552Z 31018G23KT 11/02 A2997 RMK A01 T01090016  RH  052%=      5-min Rain = 0
KME1 190553Z 30016KT 11/02 A2997 RMK A01 T01100016  RH  052%=      5-min Rain = 0
KME1 190554Z 31018KT 11/02 A2997 RMK A01 T01100016  RH  052%=      5-min Rain = 0
KME1 190555Z 32017KT 11/02 A2997 RMK A01 T01090016  RH  052%=      5-min Rain = 0
KME1 190556Z 31016KT 11/02 A2998 RMK A01 T01090016  RH  053%=      5-min Rain = 0
KME1 190557Z 30013KT 11/02 A2998 RMK A01 T01090016  RH  053%=      5-min Rain = 0
KME1 190558Z 31017G22KT 11/02 A2998 RMK A01 T01080016  RH  053%=      5-min Rain = 0
KME1 190559Z 30019G24KT 11/02 A2998 RMK A01 T01070017  RH  054%=      5-min Rain = 0

Page generated in 0.0328 seconds.